Part of Slepp's ProjectsPastebinTURLImagebinFilebin
Feedback -- English French German Japanese
Create Upload Newest Tools Donate
Sign In | Create Account

Miscellany
Friday, September 17th, 2010 at 10:56:48pm UTC 

  1. <?xml version="1.0" encoding="UTF-8" standalone="no" ?>
  2. <gpx xmlns="http://www.topografix.com/GPX/1/1" creator="" version="1.1" xmlns:xsi="http://www.w3.org/2001/XMLSchema-instance" xsi:schemaLocation="http://www.topografix.com/GPX/1/1 http://www.topografix.com/GPX/1/1/gpx.xsd">
  3.  <trk>
  4.   <name>ACTIVE LOG165741</name>
  5.   <trkseg>
  6.    <trkpt lat="53.241771" lon="9.844288">
  7.     <ele>45.219</ele>
  8.     <time>2010-09-17T14:57:40Z</time>
  9.    </trkpt>
  10.    <trkpt lat="53.242005" lon="9.844311">
  11.     <ele>43.458</ele>
  12.     <time>2010-09-17T14:58:12Z</time>
  13.    </trkpt>
  14.    <trkpt lat="53.242307" lon="9.844326">
  15.     <ele>43.434</ele>
  16.     <time>2010-09-17T14:58:34Z</time>
  17.    </trkpt>
  18.    <trkpt lat="53.242442" lon="9.844358">
  19.     <ele>43.452</ele>
  20.     <time>2010-09-17T14:58:44Z</time>
  21.    </trkpt>
  22.    <trkpt lat="53.242740" lon="9.844381">
  23.     <ele>43.550</ele>
  24.     <time>2010-09-17T14:59:06Z</time>
  25.    </trkpt>
  26.    <trkpt lat="53.243024" lon="9.844580">
  27.     <ele>43.753</ele>
  28.     <time>2010-09-17T14:59:28Z</time>
  29.    </trkpt>
  30.    <trkpt lat="53.243160" lon="9.844663">
  31.     <ele>43.167</ele>
  32.     <time>2010-09-17T14:59:39Z</time>
  33.    </trkpt>
  34.    <trkpt lat="53.243138" lon="9.844780">
  35.     <ele>42.879</ele>
  36.     <time>2010-09-17T14:59:45Z</time>
  37.    </trkpt>
  38.    <trkpt lat="53.242865" lon="9.845264">
  39.     <ele>40.888</ele>
  40.     <time>2010-09-17T15:00:14Z</time>
  41.    </trkpt>
  42.    <trkpt lat="53.242638" lon="9.845749">
  43.     <ele>40.221</ele>
  44.     <time>2010-09-17T15:00:41Z</time>
  45.    </trkpt>
  46.    <trkpt lat="53.242439" lon="9.846203">
  47.     <ele>37.486</ele>
  48.     <time>2010-09-17T15:01:06Z</time>
  49.    </trkpt>
  50.    <trkpt lat="53.242223" lon="9.846639">
  51.     <ele>36.204</ele>
  52.     <time>2010-09-17T15:01:30Z</time>
  53.    </trkpt>
  54.    <trkpt lat="53.242201" lon="9.846666">
  55.     <ele>35.806</ele>
  56.     <time>2010-09-17T15:01:32Z</time>
  57.    </trkpt>
  58.    <trkpt lat="53.241906" lon="9.847248">
  59.     <ele>30.871</ele>
  60.     <time>2010-09-17T15:02:05Z</time>
  61.    </trkpt>
  62.    <trkpt lat="53.241762" lon="9.847521">
  63.     <ele>34.228</ele>
  64.     <time>2010-09-17T15:02:21Z</time>
  65.    </trkpt>
  66.    <trkpt lat="53.241536" lon="9.847958">
  67.     <ele>37.796</ele>
  68.     <time>2010-09-17T15:02:48Z</time>
  69.    </trkpt>
  70.    <trkpt lat="53.241377" lon="9.848243">
  71.     <ele>36.743</ele>
  72.     <time>2010-09-17T15:03:05Z</time>
  73.    </trkpt>
  74.    <trkpt lat="53.241151" lon="9.848609">
  75.     <ele>37.752</ele>
  76.     <time>2010-09-17T15:03:26Z</time>
  77.    </trkpt>
  78.    <trkpt lat="53.240963" lon="9.848901">
  79.     <ele>41.173</ele>
  80.     <time>2010-09-17T15:03:43Z</time>
  81.    </trkpt>
  82.    <trkpt lat="53.240928" lon="9.848987">
  83.     <ele>42.299</ele>
  84.     <time>2010-09-17T15:03:48Z</time>
  85.    </trkpt>
  86.    <trkpt lat="53.240676" lon="9.849404">
  87.     <ele>42.160</ele>
  88.     <time>2010-09-17T15:04:11Z</time>
  89.    </trkpt>
  90.    <trkpt lat="53.240521" lon="9.849703">
  91.     <ele>37.206</ele>
  92.     <time>2010-09-17T15:04:30Z</time>
  93.    </trkpt>
  94.    <trkpt lat="53.240387" lon="9.849926">
  95.     <ele>34.752</ele>
  96.     <time>2010-09-17T15:04:44Z</time>
  97.    </trkpt>
  98.    <trkpt lat="53.240147" lon="9.850382">
  99.     <ele>38.120</ele>
  100.     <time>2010-09-17T15:05:09Z</time>
  101.    </trkpt>
  102.    <trkpt lat="53.240092" lon="9.850495">
  103.     <ele>37.744</ele>
  104.     <time>2010-09-17T15:05:14Z</time>
  105.    </trkpt>
  106.    <trkpt lat="53.239893" lon="9.850791">
  107.     <ele>38.607</ele>
  108.     <time>2010-09-17T15:05:32Z</time>
  109.    </trkpt>
  110.    <trkpt lat="53.239675" lon="9.851125">
  111.     <ele>36.114</ele>
  112.     <time>2010-09-17T15:05:54Z</time>
  113.    </trkpt>
  114.    <trkpt lat="53.239474" lon="9.851460">
  115.     <ele>36.242</ele>
  116.     <time>2010-09-17T15:06:15Z</time>
  117.    </trkpt>
  118.    <trkpt lat="53.239176" lon="9.851984">
  119.     <ele>34.533</ele>
  120.     <time>2010-09-17T15:06:47Z</time>
  121.    </trkpt>
  122.    <trkpt lat="53.238945" lon="9.852596">
  123.     <ele>35.422</ele>
  124.     <time>2010-09-17T15:07:18Z</time>
  125.    </trkpt>
  126.    <trkpt lat="53.238842" lon="9.852982">
  127.     <ele>33.816</ele>
  128.     <time>2010-09-17T15:07:43Z</time>
  129.    </trkpt>
  130.    <trkpt lat="53.238758" lon="9.853351">
  131.     <ele>33.725</ele>
  132.     <time>2010-09-17T15:08:11Z</time>
  133.    </trkpt>
  134.    <trkpt lat="53.238641" lon="9.853763">
  135.     <ele>37.282</ele>
  136.     <time>2010-09-17T15:08:30Z</time>
  137.    </trkpt>
  138.    <trkpt lat="53.238555" lon="9.854238">
  139.     <ele>38.564</ele>
  140.     <time>2010-09-17T15:08:53Z</time>
  141.    </trkpt>
  142.    <trkpt lat="53.238512" lon="9.854646">
  143.     <ele>38.329</ele>
  144.     <time>2010-09-17T15:09:10Z</time>
  145.    </trkpt>
  146.    <trkpt lat="53.238465" lon="9.854676">
  147.     <ele>38.065</ele>
  148.     <time>2010-09-17T15:09:15Z</time>
  149.    </trkpt>
  150.    <trkpt lat="53.238294" lon="9.854551">
  151.     <ele>39.018</ele>
  152.     <time>2010-09-17T15:09:32Z</time>
  153.    </trkpt>
  154.    <trkpt lat="53.237978" lon="9.854329">
  155.     <ele>39.237</ele>
  156.     <time>2010-09-17T15:09:56Z</time>
  157.    </trkpt>
  158.    <trkpt lat="53.237551" lon="9.854002">
  159.     <ele>37.914</ele>
  160.     <time>2010-09-17T15:10:30Z</time>
  161.    </trkpt>
  162.    <trkpt lat="53.237204" lon="9.853773">
  163.     <ele>37.122</ele>
  164.     <time>2010-09-17T15:10:57Z</time>
  165.    </trkpt>
  166.    <trkpt lat="53.236762" lon="9.853516">
  167.     <ele>35.018</ele>
  168.     <time>2010-09-17T15:11:30Z</time>
  169.    </trkpt>
  170.    <trkpt lat="53.236468" lon="9.853289">
  171.     <ele>34.385</ele>
  172.     <time>2010-09-17T15:11:53Z</time>
  173.    </trkpt>
  174.    <trkpt lat="53.236281" lon="9.853185">
  175.     <ele>34.546</ele>
  176.     <time>2010-09-17T15:12:07Z</time>
  177.    </trkpt>
  178.    <trkpt lat="53.236267" lon="9.853167">
  179.     <ele>34.148</ele>
  180.     <time>2010-09-17T15:12:09Z</time>
  181.    </trkpt>
  182.    <trkpt lat="53.236235" lon="9.853154">
  183.     <ele>34.222</ele>
  184.     <time>2010-09-17T15:12:12Z</time>
  185.    </trkpt>
  186.    <trkpt lat="53.236057" lon="9.853024">
  187.     <ele>31.698</ele>
  188.     <time>2010-09-17T15:12:32Z</time>
  189.    </trkpt>
  190.    <trkpt lat="53.235840" lon="9.852854">
  191.     <ele>34.912</ele>
  192.     <time>2010-09-17T15:13:25Z</time>
  193.    </trkpt>
  194.    <trkpt lat="53.235473" lon="9.852665">
  195.     <ele>38.230</ele>
  196.     <time>2010-09-17T15:13:53Z</time>
  197.    </trkpt>
  198.    <trkpt lat="53.235223" lon="9.852649">
  199.     <ele>39.172</ele>
  200.     <time>2010-09-17T15:14:13Z</time>
  201.    </trkpt>
  202.    <trkpt lat="53.234872" lon="9.852612">
  203.     <ele>39.949</ele>
  204.     <time>2010-09-17T15:14:37Z</time>
  205.    </trkpt>
  206.    <trkpt lat="53.234538" lon="9.852595">
  207.     <ele>41.207</ele>
  208.     <time>2010-09-17T15:15:02Z</time>
  209.    </trkpt>
  210.    <trkpt lat="53.234174" lon="9.852526">
  211.     <ele>41.276</ele>
  212.     <time>2010-09-17T15:15:28Z</time>
  213.    </trkpt>
  214.    <trkpt lat="53.233954" lon="9.852503">
  215.     <ele>41.439</ele>
  216.     <time>2010-09-17T15:15:50Z</time>
  217.    </trkpt>
  218.    <trkpt lat="53.233651" lon="9.852437">
  219.     <ele>41.784</ele>
  220.     <time>2010-09-17T15:16:13Z</time>
  221.    </trkpt>
  222.    <trkpt lat="53.233463" lon="9.852383">
  223.     <ele>40.345</ele>
  224.     <time>2010-09-17T15:16:27Z</time>
  225.    </trkpt>
  226.    <trkpt lat="53.233308" lon="9.852395">
  227.     <ele>37.545</ele>
  228.     <time>2010-09-17T15:16:40Z</time>
  229.    </trkpt>
  230.    <trkpt lat="53.233256" lon="9.852373">
  231.     <ele>36.165</ele>
  232.     <time>2010-09-17T15:16:59Z</time>
  233.    </trkpt>
  234.    <trkpt lat="53.232990" lon="9.852332">
  235.     <ele>38.573</ele>
  236.     <time>2010-09-17T15:17:20Z</time>
  237.    </trkpt>
  238.    <trkpt lat="53.232636" lon="9.852319">
  239.     <ele>39.440</ele>
  240.     <time>2010-09-17T15:17:45Z</time>
  241.    </trkpt>
  242.    <trkpt lat="53.232432" lon="9.852471">
  243.     <ele>41.582</ele>
  244.     <time>2010-09-17T15:18:03Z</time>
  245.    </trkpt>
  246.    <trkpt lat="53.232383" lon="9.852525">
  247.     <ele>41.909</ele>
  248.     <time>2010-09-17T15:18:08Z</time>
  249.    </trkpt>
  250.    <trkpt lat="53.232224" lon="9.852647">
  251.     <ele>43.181</ele>
  252.     <time>2010-09-17T15:18:22Z</time>
  253.    </trkpt>
  254.    <trkpt lat="53.232196" lon="9.852686">
  255.     <ele>43.509</ele>
  256.     <time>2010-09-17T15:18:26Z</time>
  257.    </trkpt>
  258.    <trkpt lat="53.231880" lon="9.852761">
  259.     <ele>45.255</ele>
  260.     <time>2010-09-17T15:18:48Z</time>
  261.    </trkpt>
  262.    <trkpt lat="53.231587" lon="9.852854">
  263.     <ele>46.431</ele>
  264.     <time>2010-09-17T15:19:08Z</time>
  265.    </trkpt>
  266.    <trkpt lat="53.231314" lon="9.853011">
  267.     <ele>45.885</ele>
  268.     <time>2010-09-17T15:19:32Z</time>
  269.    </trkpt>
  270.    <trkpt lat="53.231060" lon="9.853238">
  271.     <ele>41.315</ele>
  272.     <time>2010-09-17T15:19:55Z</time>
  273.    </trkpt>
  274.    <trkpt lat="53.230836" lon="9.853441">
  275.     <ele>43.206</ele>
  276.     <time>2010-09-17T15:20:15Z</time>
  277.    </trkpt>
  278.    <trkpt lat="53.230577" lon="9.853668">
  279.     <ele>43.351</ele>
  280.     <time>2010-09-17T15:20:36Z</time>
  281.    </trkpt>
  282.    <trkpt lat="53.230298" lon="9.853834">
  283.     <ele>44.451</ele>
  284.     <time>2010-09-17T15:20:57Z</time>
  285.    </trkpt>
  286.    <trkpt lat="53.230033" lon="9.853915">
  287.     <ele>45.797</ele>
  288.     <time>2010-09-17T15:21:17Z</time>
  289.    </trkpt>
  290.    <trkpt lat="53.229782" lon="9.853962">
  291.     <ele>46.540</ele>
  292.     <time>2010-09-17T15:21:34Z</time>
  293.    </trkpt>
  294.    <trkpt lat="53.229623" lon="9.854050">
  295.     <ele>47.799</ele>
  296.     <time>2010-09-17T15:21:50Z</time>
  297.    </trkpt>
  298.    <trkpt lat="53.229540" lon="9.854089">
  299.     <ele>45.837</ele>
  300.     <time>2010-09-17T15:21:58Z</time>
  301.    </trkpt>
  302.    <trkpt lat="53.229193" lon="9.854238">
  303.     <ele>44.259</ele>
  304.     <time>2010-09-17T15:22:24Z</time>
  305.    </trkpt>
  306.    <trkpt lat="53.229093" lon="9.854260">
  307.     <ele>44.328</ele>
  308.     <time>2010-09-17T15:22:32Z</time>
  309.    </trkpt>
  310.    <trkpt lat="53.228764" lon="9.854148">
  311.     <ele>40.986</ele>
  312.     <time>2010-09-17T15:22:57Z</time>
  313.    </trkpt>
  314.    <trkpt lat="53.228474" lon="9.853976">
  315.     <ele>38.114</ele>
  316.     <time>2010-09-17T15:23:24Z</time>
  317.    </trkpt>
  318.    <trkpt lat="53.228156" lon="9.854042">
  319.     <ele>37.162</ele>
  320.     <time>2010-09-17T15:23:45Z</time>
  321.    </trkpt>
  322.    <trkpt lat="53.227860" lon="9.854087">
  323.     <ele>43.112</ele>
  324.     <time>2010-09-17T15:24:08Z</time>
  325.    </trkpt>
  326.    <trkpt lat="53.227634" lon="9.854206">
  327.     <ele>45.539</ele>
  328.     <time>2010-09-17T15:24:26Z</time>
  329.    </trkpt>
  330.    <trkpt lat="53.227309" lon="9.854355">
  331.     <ele>49.187</ele>
  332.     <time>2010-09-17T15:24:52Z</time>
  333.    </trkpt>
  334.    <trkpt lat="53.227281" lon="9.854354">
  335.     <ele>49.384</ele>
  336.     <time>2010-09-17T15:24:54Z</time>
  337.    </trkpt>
  338.    <trkpt lat="53.227180" lon="9.854303">
  339.     <ele>48.767</ele>
  340.     <time>2010-09-17T15:25:08Z</time>
  341.    </trkpt>
  342.    <trkpt lat="53.227143" lon="9.854180">
  343.     <ele>48.065</ele>
  344.     <time>2010-09-17T15:25:14Z</time>
  345.    </trkpt>
  346.    <trkpt lat="53.227140" lon="9.854144">
  347.     <ele>47.628</ele>
  348.     <time>2010-09-17T15:25:16Z</time>
  349.    </trkpt>
  350.    <trkpt lat="53.227142" lon="9.854054">
  351.     <ele>47.798</ele>
  352.     <time>2010-09-17T15:25:20Z</time>
  353.    </trkpt>
  354.    <trkpt lat="53.227064" lon="9.853843">
  355.     <ele>50.942</ele>
  356.     <time>2010-09-17T15:25:33Z</time>
  357.    </trkpt>
  358.    <trkpt lat="53.227043" lon="9.853802">
  359.     <ele>53.006</ele>
  360.     <time>2010-09-17T15:25:37Z</time>
  361.    </trkpt>
  362.    <trkpt lat="53.226942" lon="9.853850">
  363.     <ele>55.573</ele>
  364.     <time>2010-09-17T15:25:48Z</time>
  365.    </trkpt>
  366.    <trkpt lat="53.226868" lon="9.853928">
  367.     <ele>56.708</ele>
  368.     <time>2010-09-17T15:25:54Z</time>
  369.    </trkpt>
  370.    <trkpt lat="53.226720" lon="9.854073">
  371.     <ele>57.288</ele>
  372.     <time>2010-09-17T15:26:07Z</time>
  373.    </trkpt>
  374.    <trkpt lat="53.226587" lon="9.854166">
  375.     <ele>57.149</ele>
  376.     <time>2010-09-17T15:26:21Z</time>
  377.    </trkpt>
  378.    <trkpt lat="53.226412" lon="9.854235">
  379.     <ele>56.347</ele>
  380.     <time>2010-09-17T15:26:31Z</time>
  381.    </trkpt>
  382.    <trkpt lat="53.226268" lon="9.854350">
  383.     <ele>49.886</ele>
  384.     <time>2010-09-17T15:26:45Z</time>
  385.    </trkpt>
  386.    <trkpt lat="53.226204" lon="9.854417">
  387.     <ele>45.941</ele>
  388.     <time>2010-09-17T15:26:54Z</time>
  389.    </trkpt>
  390.    <trkpt lat="53.225998" lon="9.854546">
  391.     <ele>42.690</ele>
  392.     <time>2010-09-17T15:27:11Z</time>
  393.    </trkpt>
  394.    <trkpt lat="53.225876" lon="9.854542">
  395.     <ele>41.976</ele>
  396.     <time>2010-09-17T15:27:22Z</time>
  397.    </trkpt>
  398.    <trkpt lat="53.225797" lon="9.854532">
  399.     <ele>41.268</ele>
  400.     <time>2010-09-17T15:27:29Z</time>
  401.    </trkpt>
  402.    <trkpt lat="53.225581" lon="9.854647">
  403.     <ele>35.174</ele>
  404.     <time>2010-09-17T15:27:45Z</time>
  405.    </trkpt>
  406.    <trkpt lat="53.225566" lon="9.854652">
  407.     <ele>34.534</ele>
  408.     <time>2010-09-17T15:27:47Z</time>
  409.    </trkpt>
  410.    <trkpt lat="53.225530" lon="9.854686">
  411.     <ele>33.848</ele>
  412.     <time>2010-09-17T15:27:50Z</time>
  413.    </trkpt>
  414.    <trkpt lat="53.225492" lon="9.854706">
  415.     <ele>33.373</ele>
  416.     <time>2010-09-17T15:27:53Z</time>
  417.    </trkpt>
  418.    <trkpt lat="53.225358" lon="9.854879">
  419.     <ele>33.302</ele>
  420.     <time>2010-09-17T15:28:03Z</time>
  421.    </trkpt>
  422.    <trkpt lat="53.225254" lon="9.854963">
  423.     <ele>34.969</ele>
  424.     <time>2010-09-17T15:28:09Z</time>
  425.    </trkpt>
  426.    <trkpt lat="53.225213" lon="9.855043">
  427.     <ele>36.206</ele>
  428.     <time>2010-09-17T15:28:12Z</time>
  429.    </trkpt>
  430.    <trkpt lat="53.225034" lon="9.855246">
  431.     <ele>43.921</ele>
  432.     <time>2010-09-17T15:28:26Z</time>
  433.    </trkpt>
  434.    <trkpt lat="53.224969" lon="9.855285">
  435.     <ele>44.702</ele>
  436.     <time>2010-09-17T15:28:31Z</time>
  437.    </trkpt>
  438.    <trkpt lat="53.224892" lon="9.855250">
  439.     <ele>44.634</ele>
  440.     <time>2010-09-17T15:28:34Z</time>
  441.    </trkpt>
  442.    <trkpt lat="53.224742" lon="9.855398">
  443.     <ele>43.877</ele>
  444.     <time>2010-09-17T15:28:49Z</time>
  445.    </trkpt>
  446.    <trkpt lat="53.224580" lon="9.855512">
  447.     <ele>40.977</ele>
  448.     <time>2010-09-17T15:29:03Z</time>
  449.    </trkpt>
  450.    <trkpt lat="53.224415" lon="9.855612">
  451.     <ele>38.135</ele>
  452.     <time>2010-09-17T15:29:19Z</time>
  453.    </trkpt>
  454.    <trkpt lat="53.224375" lon="9.855665">
  455.     <ele>38.023</ele>
  456.     <time>2010-09-17T15:29:22Z</time>
  457.    </trkpt>
  458.    <trkpt lat="53.224276" lon="9.855756">
  459.     <ele>36.201</ele>
  460.     <time>2010-09-17T15:29:29Z</time>
  461.    </trkpt>
  462.    <trkpt lat="53.224050" lon="9.855874">
  463.     <ele>35.496</ele>
  464.     <time>2010-09-17T15:29:44Z</time>
  465.    </trkpt>
  466.    <trkpt lat="53.223971" lon="9.855935">
  467.     <ele>36.012</ele>
  468.     <time>2010-09-17T15:29:51Z</time>
  469.    </trkpt>
  470.    <trkpt lat="53.223722" lon="9.856088">
  471.     <ele>37.254</ele>
  472.     <time>2010-09-17T15:30:11Z</time>
  473.    </trkpt>
  474.    <trkpt lat="53.223529" lon="9.856271">
  475.     <ele>45.961</ele>
  476.     <time>2010-09-17T15:30:25Z</time>
  477.    </trkpt>
  478.    <trkpt lat="53.223361" lon="9.856374">
  479.     <ele>46.510</ele>
  480.     <time>2010-09-17T15:30:39Z</time>
  481.    </trkpt>
  482.    <trkpt lat="53.223318" lon="9.856447">
  483.     <ele>47.104</ele>
  484.     <time>2010-09-17T15:30:44Z</time>
  485.    </trkpt>
  486.    <trkpt lat="53.223229" lon="9.856477">
  487.     <ele>44.160</ele>
  488.     <time>2010-09-17T15:30:54Z</time>
  489.    </trkpt>
  490.    <trkpt lat="53.223063" lon="9.856663">
  491.     <ele>44.649</ele>
  492.     <time>2010-09-17T15:31:07Z</time>
  493.    </trkpt>
  494.    <trkpt lat="53.223025" lon="9.856675">
  495.     <ele>44.889</ele>
  496.     <time>2010-09-17T15:31:12Z</time>
  497.    </trkpt>
  498.    <trkpt lat="53.222843" lon="9.856823">
  499.     <ele>44.826</ele>
  500.     <time>2010-09-17T15:31:28Z</time>
  501.    </trkpt>
  502.    <trkpt lat="53.222815" lon="9.856885">
  503.     <ele>44.212</ele>
  504.     <time>2010-09-17T15:31:32Z</time>
  505.    </trkpt>
  506.    <trkpt lat="53.222770" lon="9.856934">
  507.     <ele>44.374</ele>
  508.     <time>2010-09-17T15:31:36Z</time>
  509.    </trkpt>
  510.    <trkpt lat="53.222663" lon="9.857073">
  511.     <ele>45.174</ele>
  512.     <time>2010-09-17T15:31:46Z</time>
  513.    </trkpt>
  514.    <trkpt lat="53.222586" lon="9.857108">
  515.     <ele>44.426</ele>
  516.     <time>2010-09-17T15:31:51Z</time>
  517.    </trkpt>
  518.    <trkpt lat="53.222539" lon="9.857130">
  519.     <ele>44.944</ele>
  520.     <time>2010-09-17T15:31:55Z</time>
  521.    </trkpt>
  522.    <trkpt lat="53.222486" lon="9.857175">
  523.     <ele>45.558</ele>
  524.     <time>2010-09-17T15:32:01Z</time>
  525.    </trkpt>
  526.    <trkpt lat="53.222437" lon="9.857201">
  527.     <ele>47.351</ele>
  528.     <time>2010-09-17T15:32:04Z</time>
  529.    </trkpt>
  530.    <trkpt lat="53.222239" lon="9.857301">
  531.     <ele>41.359</ele>
  532.     <time>2010-09-17T15:32:20Z</time>
  533.    </trkpt>
  534.    <trkpt lat="53.222048" lon="9.857377">
  535.     <ele>38.711</ele>
  536.     <time>2010-09-17T15:32:37Z</time>
  537.    </trkpt>
  538.    <trkpt lat="53.222029" lon="9.857407">
  539.     <ele>37.974</ele>
  540.     <time>2010-09-17T15:32:41Z</time>
  541.    </trkpt>
  542.    <trkpt lat="53.221825" lon="9.857541">
  543.     <ele>34.672</ele>
  544.     <time>2010-09-17T15:33:00Z</time>
  545.    </trkpt>
  546.    <trkpt lat="53.221633" lon="9.857651">
  547.     <ele>30.657</ele>
  548.     <time>2010-09-17T15:33:20Z</time>
  549.    </trkpt>
  550.    <trkpt lat="53.221556" lon="9.857700">
  551.     <ele>29.490</ele>
  552.     <time>2010-09-17T15:33:28Z</time>
  553.    </trkpt>
  554.    <trkpt lat="53.221363" lon="9.857911">
  555.     <ele>31.916</ele>
  556.     <time>2010-09-17T15:33:44Z</time>
  557.    </trkpt>
  558.    <trkpt lat="53.221276" lon="9.858041">
  559.     <ele>35.706</ele>
  560.     <time>2010-09-17T15:33:49Z</time>
  561.    </trkpt>
  562.    <trkpt lat="53.221093" lon="9.858198">
  563.     <ele>40.403</ele>
  564.     <time>2010-09-17T15:34:04Z</time>
  565.    </trkpt>
  566.    <trkpt lat="53.220908" lon="9.858349">
  567.     <ele>44.507</ele>
  568.     <time>2010-09-17T15:34:21Z</time>
  569.    </trkpt>
  570.    <trkpt lat="53.220653" lon="9.858537">
  571.     <ele>48.275</ele>
  572.     <time>2010-09-17T15:34:44Z</time>
  573.    </trkpt>
  574.    <trkpt lat="53.220379" lon="9.858689">
  575.     <ele>48.863</ele>
  576.     <time>2010-09-17T15:35:02Z</time>
  577.    </trkpt>
  578.    <trkpt lat="53.220181" lon="9.858843">
  579.     <ele>48.384</ele>
  580.     <time>2010-09-17T15:35:21Z</time>
  581.    </trkpt>
  582.    <trkpt lat="53.219953" lon="9.859036">
  583.     <ele>48.736</ele>
  584.     <time>2010-09-17T15:35:40Z</time>
  585.    </trkpt>
  586.    <trkpt lat="53.219720" lon="9.859203">
  587.     <ele>49.442</ele>
  588.     <time>2010-09-17T15:35:58Z</time>
  589.    </trkpt>
  590.    <trkpt lat="53.219507" lon="9.859579">
  591.     <ele>52.712</ele>
  592.     <time>2010-09-17T15:36:24Z</time>
  593.    </trkpt>
  594.    <trkpt lat="53.219474" lon="9.859755">
  595.     <ele>53.976</ele>
  596.     <time>2010-09-17T15:36:33Z</time>
  597.    </trkpt>
  598.    <trkpt lat="53.219413" lon="9.859955">
  599.     <ele>52.714</ele>
  600.     <time>2010-09-17T15:36:46Z</time>
  601.    </trkpt>
  602.    <trkpt lat="53.219340" lon="9.860183">
  603.     <ele>51.032</ele>
  604.     <time>2010-09-17T15:37:00Z</time>
  605.    </trkpt>
  606.    <trkpt lat="53.219289" lon="9.860377">
  607.     <ele>48.522</ele>
  608.     <time>2010-09-17T15:37:09Z</time>
  609.    </trkpt>
  610.    <trkpt lat="53.219221" lon="9.860716">
  611.     <ele>43.565</ele>
  612.     <time>2010-09-17T15:37:26Z</time>
  613.    </trkpt>
  614.    <trkpt lat="53.219128" lon="9.861073">
  615.     <ele>40.874</ele>
  616.     <time>2010-09-17T15:37:47Z</time>
  617.    </trkpt>
  618.    <trkpt lat="53.219122" lon="9.861145">
  619.     <ele>41.242</ele>
  620.     <time>2010-09-17T15:37:50Z</time>
  621.    </trkpt>
  622.    <trkpt lat="53.218986" lon="9.861363">
  623.     <ele>40.239</ele>
  624.     <time>2010-09-17T15:38:06Z</time>
  625.    </trkpt>
  626.    <trkpt lat="53.218878" lon="9.861676">
  627.     <ele>35.924</ele>
  628.     <time>2010-09-17T15:38:27Z</time>
  629.    </trkpt>
  630.    <trkpt lat="53.218848" lon="9.862029">
  631.     <ele>32.531</ele>
  632.     <time>2010-09-17T15:38:44Z</time>
  633.    </trkpt>
  634.    <trkpt lat="53.218780" lon="9.862077">
  635.     <ele>31.672</ele>
  636.     <time>2010-09-17T15:38:49Z</time>
  637.    </trkpt>
  638.    <trkpt lat="53.218744" lon="9.862193">
  639.     <ele>29.938</ele>
  640.     <time>2010-09-17T15:38:56Z</time>
  641.    </trkpt>
  642.    <trkpt lat="53.218675" lon="9.862525">
  643.     <ele>25.770</ele>
  644.     <time>2010-09-17T15:39:15Z</time>
  645.    </trkpt>
  646.    <trkpt lat="53.218585" lon="9.862755">
  647.     <ele>22.548</ele>
  648.     <time>2010-09-17T15:39:31Z</time>
  649.    </trkpt>
  650.    <trkpt lat="53.218509" lon="9.862964">
  651.     <ele>17.271</ele>
  652.     <time>2010-09-17T15:39:47Z</time>
  653.    </trkpt>
  654.    <trkpt lat="53.218498" lon="9.863073">
  655.     <ele>14.565</ele>
  656.     <time>2010-09-17T15:39:53Z</time>
  657.    </trkpt>
  658.    <trkpt lat="53.218425" lon="9.863257">
  659.     <ele>8.766</ele>
  660.     <time>2010-09-17T15:40:09Z</time>
  661.    </trkpt>
  662.    <trkpt lat="53.218372" lon="9.863507">
  663.     <ele>4.387</ele>
  664.     <time>2010-09-17T15:40:23Z</time>
  665.    </trkpt>
  666.    <trkpt lat="53.218371" lon="9.863538">
  667.     <ele>3.624</ele>
  668.     <time>2010-09-17T15:40:25Z</time>
  669.    </trkpt>
  670.    <trkpt lat="53.218373" lon="9.863555">
  671.     <ele>2.487</ele>
  672.     <time>2010-09-17T15:40:27Z</time>
  673.    </trkpt>
  674.    <trkpt lat="53.218374" lon="9.863819">
  675.     <ele>-0.866</ele>
  676.     <time>2010-09-17T15:40:44Z</time>
  677.    </trkpt>
  678.    <trkpt lat="53.218217" lon="9.864073">
  679.     <ele>-3.101</ele>
  680.     <time>2010-09-17T15:41:01Z</time>
  681.    </trkpt>
  682.    <trkpt lat="53.218144" lon="9.864244">
  683.     <ele>-4.684</ele>
  684.     <time>2010-09-17T15:41:10Z</time>
  685.    </trkpt>
  686.    <trkpt lat="53.218081" lon="9.864277">
  687.     <ele>-6.265</ele>
  688.     <time>2010-09-17T15:41:15Z</time>
  689.    </trkpt>
  690.    <trkpt lat="53.218006" lon="9.864461">
  691.     <ele>-10.297</ele>
  692.     <time>2010-09-17T15:41:28Z</time>
  693.    </trkpt>
  694.    <trkpt lat="53.217883" lon="9.864590">
  695.     <ele>-15.747</ele>
  696.     <time>2010-09-17T15:41:44Z</time>
  697.    </trkpt>
  698.    <trkpt lat="53.217806" lon="9.864902">
  699.     <ele>-20.828</ele>
  700.     <time>2010-09-17T15:42:01Z</time>
  701.    </trkpt>
  702.    <trkpt lat="53.217695" lon="9.865112">
  703.     <ele>-21.039</ele>
  704.     <time>2010-09-17T15:42:17Z</time>
  705.    </trkpt>
  706.    <trkpt lat="53.217627" lon="9.865387">
  707.     <ele>-23.236</ele>
  708.     <time>2010-09-17T15:42:31Z</time>
  709.    </trkpt>
  710.    <trkpt lat="53.217544" lon="9.865687">
  711.     <ele>-30.990</ele>
  712.     <time>2010-09-17T15:42:51Z</time>
  713.    </trkpt>
  714.    <trkpt lat="53.217450" lon="9.865944">
  715.     <ele>-34.826</ele>
  716.     <time>2010-09-17T15:43:07Z</time>
  717.    </trkpt>
  718.    <trkpt lat="53.217444" lon="9.865965">
  719.     <ele>-34.903</ele>
  720.     <time>2010-09-17T15:43:09Z</time>
  721.    </trkpt>
  722.    <trkpt lat="53.217273" lon="9.866363">
  723.     <ele>-35.480</ele>
  724.     <time>2010-09-17T15:43:31Z</time>
  725.    </trkpt>
  726.    <trkpt lat="53.217102" lon="9.866827">
  727.     <ele>-37.943</ele>
  728.     <time>2010-09-17T15:43:56Z</time>
  729.    </trkpt>
  730.    <trkpt lat="53.217092" lon="9.866872">
  731.     <ele>-38.078</ele>
  732.     <time>2010-09-17T15:43:58Z</time>
  733.    </trkpt>
  734.    <trkpt lat="53.217020" lon="9.867060">
  735.     <ele>-38.471</ele>
  736.     <time>2010-09-17T15:44:08Z</time>
  737.    </trkpt>
  738.    <trkpt lat="53.216966" lon="9.867121">
  739.     <ele>-38.792</ele>
  740.     <time>2010-09-17T15:44:13Z</time>
  741.    </trkpt>
  742.    <trkpt lat="53.216927" lon="9.867240">
  743.     <ele>-40.679</ele>
  744.     <time>2010-09-17T15:44:22Z</time>
  745.    </trkpt>
  746.    <trkpt lat="53.216872" lon="9.867358">
  747.     <ele>-44.442</ele>
  748.     <time>2010-09-17T15:44:30Z</time>
  749.    </trkpt>
  750.    <trkpt lat="53.216830" lon="9.867393">
  751.     <ele>-45.678</ele>
  752.     <time>2010-09-17T15:44:35Z</time>
  753.    </trkpt>
  754.    <trkpt lat="53.216688" lon="9.867701">
  755.     <ele>-58.408</ele>
  756.     <time>2010-09-17T15:45:00Z</time>
  757.    </trkpt>
  758.    <trkpt lat="53.216638" lon="9.867756">
  759.     <ele>-61.018</ele>
  760.     <time>2010-09-17T15:45:07Z</time>
  761.    </trkpt>
  762.    <trkpt lat="53.216558" lon="9.867828">
  763.     <ele>-65.220</ele>
  764.     <time>2010-09-17T15:45:18Z</time>
  765.    </trkpt>
  766.    <trkpt lat="53.216383" lon="9.867985">
  767.     <ele>-71.791</ele>
  768.     <time>2010-09-17T15:45:39Z</time>
  769.    </trkpt>
  770.    <trkpt lat="53.216131" lon="9.868163">
  771.     <ele>-79.163</ele>
  772.     <time>2010-09-17T15:45:59Z</time>
  773.    </trkpt>
  774.    <trkpt lat="53.215910" lon="9.868321">
  775.     <ele>-83.745</ele>
  776.     <time>2010-09-17T15:46:17Z</time>
  777.    </trkpt>
  778.    <trkpt lat="53.215711" lon="9.868445">
  779.     <ele>-86.826</ele>
  780.     <time>2010-09-17T15:46:33Z</time>
  781.    </trkpt>
  782.    <trkpt lat="53.215634" lon="9.868495">
  783.     <ele>-88.005</ele>
  784.     <time>2010-09-17T15:46:41Z</time>
  785.    </trkpt>
  786.    <trkpt lat="53.215583" lon="9.868537">
  787.     <ele>-89.315</ele>
  788.     <time>2010-09-17T15:46:46Z</time>
  789.    </trkpt>
  790.    <trkpt lat="53.215404" lon="9.868690">
  791.     <ele>-89.350</ele>
  792.     <time>2010-09-17T15:47:06Z</time>
  793.    </trkpt>
  794.    <trkpt lat="53.215536" lon="9.869318">
  795.     <ele>-83.581</ele>
  796.     <time>2010-09-17T15:47:18Z</time>
  797.    </trkpt>
  798.    <trkpt lat="53.215474" lon="9.869312">
  799.     <ele>-81.971</ele>
  800.     <time>2010-09-17T15:47:21Z</time>
  801.    </trkpt>
  802.    <trkpt lat="53.215167" lon="9.869704">
  803.     <ele>-82.681</ele>
  804.     <time>2010-09-17T15:47:35Z</time>
  805.    </trkpt>
  806.    <trkpt lat="53.215198" lon="9.869978">
  807.     <ele>-82.882</ele>
  808.     <time>2010-09-17T15:47:40Z</time>
  809.    </trkpt>
  810.    <trkpt lat="53.215184" lon="9.871055">
  811.     <ele>-81.007</ele>
  812.     <time>2010-09-17T15:48:09Z</time>
  813.    </trkpt>
  814.    <trkpt lat="53.214890" lon="9.871269">
  815.     <ele>-80.201</ele>
  816.     <time>2010-09-17T15:48:33Z</time>
  817.    </trkpt>
  818.    <trkpt lat="53.214731" lon="9.871432">
  819.     <ele>-81.160</ele>
  820.     <time>2010-09-17T15:48:53Z</time>
  821.    </trkpt>
  822.    <trkpt lat="53.214822" lon="9.871562">
  823.     <ele>-80.267</ele>
  824.     <time>2010-09-17T15:49:19Z</time>
  825.    </trkpt>
  826.    <trkpt lat="53.214564" lon="9.872008">
  827.     <ele>-42.570</ele>
  828.     <time>2010-09-17T15:49:51Z</time>
  829.    </trkpt>
  830.    <trkpt lat="53.213746" lon="9.872293">
  831.     <ele>29.141</ele>
  832.     <time>2010-09-17T15:50:15Z</time>
  833.    </trkpt>
  834.    <trkpt lat="53.213664" lon="9.872352">
  835.     <ele>34.943</ele>
  836.     <time>2010-09-17T15:50:20Z</time>
  837.    </trkpt>
  838.    <trkpt lat="53.213577" lon="9.872417">
  839.     <ele>39.855</ele>
  840.     <time>2010-09-17T15:50:26Z</time>
  841.    </trkpt>
  842.    <trkpt lat="53.213492" lon="9.872475">
  843.     <ele>45.701</ele>
  844.     <time>2010-09-17T15:50:32Z</time>
  845.    </trkpt>
  846.    <trkpt lat="53.213241" lon="9.872654">
  847.     <ele>49.105</ele>
  848.     <time>2010-09-17T15:50:53Z</time>
  849.    </trkpt>
  850.    <trkpt lat="53.213166" lon="9.872714">
  851.     <ele>49.418</ele>
  852.     <time>2010-09-17T15:51:00Z</time>
  853.    </trkpt>
  854.    <trkpt lat="53.213135" lon="9.872744">
  855.     <ele>50.027</ele>
  856.     <time>2010-09-17T15:51:03Z</time>
  857.    </trkpt>
  858.    <trkpt lat="53.212918" lon="9.872857">
  859.     <ele>53.894</ele>
  860.     <time>2010-09-17T15:51:21Z</time>
  861.    </trkpt>
  862.    <trkpt lat="53.212702" lon="9.873009">
  863.     <ele>50.495</ele>
  864.     <time>2010-09-17T15:51:38Z</time>
  865.    </trkpt>
  866.    <trkpt lat="53.212478" lon="9.873159">
  867.     <ele>50.543</ele>
  868.     <time>2010-09-17T15:51:58Z</time>
  869.    </trkpt>
  870.    <trkpt lat="53.212458" lon="9.873172">
  871.     <ele>50.789</ele>
  872.     <time>2010-09-17T15:52:00Z</time>
  873.    </trkpt>
  874.    <trkpt lat="53.212430" lon="9.873189">
  875.     <ele>50.909</ele>
  876.     <time>2010-09-17T15:52:02Z</time>
  877.    </trkpt>
  878.    <trkpt lat="53.212265" lon="9.873296">
  879.     <ele>50.345</ele>
  880.     <time>2010-09-17T15:52:18Z</time>
  881.    </trkpt>
  882.    <trkpt lat="53.212111" lon="9.873405">
  883.     <ele>52.806</ele>
  884.     <time>2010-09-17T15:52:40Z</time>
  885.    </trkpt>
  886.    <trkpt lat="53.212091" lon="9.873423">
  887.     <ele>53.112</ele>
  888.     <time>2010-09-17T15:52:42Z</time>
  889.    </trkpt>
  890.    <trkpt lat="53.211961" lon="9.873519">
  891.     <ele>56.438</ele>
  892.     <time>2010-09-17T15:52:54Z</time>
  893.    </trkpt>
  894.    <trkpt lat="53.211935" lon="9.873536">
  895.     <ele>56.917</ele>
  896.     <time>2010-09-17T15:52:57Z</time>
  897.    </trkpt>
  898.    <trkpt lat="53.211885" lon="9.873622">
  899.     <ele>56.701</ele>
  900.     <time>2010-09-17T15:53:04Z</time>
  901.    </trkpt>
  902.    <trkpt lat="53.211806" lon="9.873758">
  903.     <ele>59.486</ele>
  904.     <time>2010-09-17T15:53:17Z</time>
  905.    </trkpt>
  906.    <trkpt lat="53.211789" lon="9.873778">
  907.     <ele>59.369</ele>
  908.     <time>2010-09-17T15:53:19Z</time>
  909.    </trkpt>
  910.    <trkpt lat="53.211776" lon="9.873779">
  911.     <ele>59.195</ele>
  912.     <time>2010-09-17T15:53:21Z</time>
  913.    </trkpt>
  914.    <trkpt lat="53.211569" lon="9.873899">
  915.     <ele>59.416</ele>
  916.     <time>2010-09-17T15:53:39Z</time>
  917.    </trkpt>
  918.    <trkpt lat="53.211558" lon="9.873906">
  919.     <ele>59.154</ele>
  920.     <time>2010-09-17T15:53:40Z</time>
  921.    </trkpt>
  922.    <trkpt lat="53.211490" lon="9.873937">
  923.     <ele>58.280</ele>
  924.     <time>2010-09-17T15:53:44Z</time>
  925.    </trkpt>
  926.    <trkpt lat="53.211311" lon="9.874064">
  927.     <ele>57.698</ele>
  928.     <time>2010-09-17T15:54:00Z</time>
  929.    </trkpt>
  930.    <trkpt lat="53.211296" lon="9.874084">
  931.     <ele>56.907</ele>
  932.     <time>2010-09-17T15:54:02Z</time>
  933.    </trkpt>
  934.    <trkpt lat="53.211036" lon="9.874257">
  935.     <ele>58.714</ele>
  936.     <time>2010-09-17T15:54:24Z</time>
  937.    </trkpt>
  938.    <trkpt lat="53.210872" lon="9.874366">
  939.     <ele>58.145</ele>
  940.     <time>2010-09-17T15:54:40Z</time>
  941.    </trkpt>
  942.    <trkpt lat="53.210807" lon="9.874369">
  943.     <ele>57.884</ele>
  944.     <time>2010-09-17T15:54:45Z</time>
  945.    </trkpt>
  946.    <trkpt lat="53.210740" lon="9.874424">
  947.     <ele>57.440</ele>
  948.     <time>2010-09-17T15:54:51Z</time>
  949.    </trkpt>
  950.    <trkpt lat="53.210629" lon="9.874516">
  951.     <ele>55.209</ele>
  952.     <time>2010-09-17T15:55:02Z</time>
  953.    </trkpt>
  954.    <trkpt lat="53.210608" lon="9.874533">
  955.     <ele>53.986</ele>
  956.     <time>2010-09-17T15:55:04Z</time>
  957.    </trkpt>
  958.    <trkpt lat="53.210268" lon="9.874805">
  959.     <ele>50.719</ele>
  960.     <time>2010-09-17T15:55:35Z</time>
  961.    </trkpt>
  962.    <trkpt lat="53.210185" lon="9.874874">
  963.     <ele>53.697</ele>
  964.     <time>2010-09-17T15:55:43Z</time>
  965.    </trkpt>
  966.    <trkpt lat="53.210009" lon="9.874838">
  967.     <ele>56.353</ele>
  968.     <time>2010-09-17T15:56:00Z</time>
  969.    </trkpt>
  970.    <trkpt lat="53.209926" lon="9.874826">
  971.     <ele>60.431</ele>
  972.     <time>2010-09-17T15:56:07Z</time>
  973.    </trkpt>
  974.    <trkpt lat="53.209863" lon="9.874825">
  975.     <ele>61.148</ele>
  976.     <time>2010-09-17T15:56:13Z</time>
  977.    </trkpt>
  978.    <trkpt lat="53.209609" lon="9.874763">
  979.     <ele>56.904</ele>
  980.     <time>2010-09-17T15:56:32Z</time>
  981.    </trkpt>
  982.    <trkpt lat="53.209562" lon="9.874744">
  983.     <ele>56.083</ele>
  984.     <time>2010-09-17T15:56:36Z</time>
  985.    </trkpt>
  986.    <trkpt lat="53.209327" lon="9.874702">
  987.     <ele>59.078</ele>
  988.     <time>2010-09-17T15:56:55Z</time>
  989.    </trkpt>
  990.    <trkpt lat="53.209304" lon="9.874695">
  991.     <ele>58.678</ele>
  992.     <time>2010-09-17T15:56:57Z</time>
  993.    </trkpt>
  994.    <trkpt lat="53.209102" lon="9.874672">
  995.     <ele>57.494</ele>
  996.     <time>2010-09-17T15:57:12Z</time>
  997.    </trkpt>
  998.    <trkpt lat="53.209017" lon="9.874651">
  999.     <ele>56.493</ele>
  1000.     <time>2010-09-17T15:57:23Z</time>
  1001.    </trkpt>
  1002.    <trkpt lat="53.208804" lon="9.874602">
  1003.     <ele>52.548</ele>
  1004.     <time>2010-09-17T15:57:38Z</time>
  1005.    </trkpt>
  1006.    <trkpt lat="53.208747" lon="9.874579">
  1007.     <ele>51.548</ele>
  1008.     <time>2010-09-17T15:57:43Z</time>
  1009.    </trkpt>
  1010.    <trkpt lat="53.208466" lon="9.874540">
  1011.     <ele>54.978</ele>
  1012.     <time>2010-09-17T15:58:03Z</time>
  1013.    </trkpt>
  1014.    <trkpt lat="53.208342" lon="9.874528">
  1015.     <ele>55.509</ele>
  1016.     <time>2010-09-17T15:58:14Z</time>
  1017.    </trkpt>
  1018.    <trkpt lat="53.208030" lon="9.874491">
  1019.     <ele>58.213</ele>
  1020.     <time>2010-09-17T15:58:37Z</time>
  1021.    </trkpt>
  1022.    <trkpt lat="53.207967" lon="9.874456">
  1023.     <ele>59.437</ele>
  1024.     <time>2010-09-17T15:58:52Z</time>
  1025.    </trkpt>
  1026.    <trkpt lat="53.208032" lon="9.874367">
  1027.     <ele>60.134</ele>
  1028.     <time>2010-09-17T15:59:01Z</time>
  1029.    </trkpt>
  1030.    <trkpt lat="53.207993" lon="9.874187">
  1031.     <ele>60.264</ele>
  1032.     <time>2010-09-17T15:59:17Z</time>
  1033.    </trkpt>
  1034.    <trkpt lat="53.207984" lon="9.874121">
  1035.     <ele>59.470</ele>
  1036.     <time>2010-09-17T15:59:23Z</time>
  1037.    </trkpt>
  1038.    <trkpt lat="53.207977" lon="9.874035">
  1039.     <ele>59.227</ele>
  1040.     <time>2010-09-17T15:59:27Z</time>
  1041.    </trkpt>
  1042.    <trkpt lat="53.207995" lon="9.873844">
  1043.     <ele>60.566</ele>
  1044.     <time>2010-09-17T15:59:45Z</time>
  1045.    </trkpt>
  1046.    <trkpt lat="53.208025" lon="9.873697">
  1047.     <ele>60.506</ele>
  1048.     <time>2010-09-17T16:00:00Z</time>
  1049.    </trkpt>
  1050.    <trkpt lat="53.208009" lon="9.873681">
  1051.     <ele>59.775</ele>
  1052.     <time>2010-09-17T16:00:02Z</time>
  1053.    </trkpt>
  1054.    <trkpt lat="53.207992" lon="9.873642">
  1055.     <ele>59.144</ele>
  1056.     <time>2010-09-17T16:00:05Z</time>
  1057.    </trkpt>
  1058.    <trkpt lat="53.208028" lon="9.873546">
  1059.     <ele>59.179</ele>
  1060.     <time>2010-09-17T16:00:13Z</time>
  1061.    </trkpt>
  1062.    <trkpt lat="53.208060" lon="9.873467">
  1063.     <ele>58.920</ele>
  1064.     <time>2010-09-17T16:00:19Z</time>
  1065.    </trkpt>
  1066.    <trkpt lat="53.208127" lon="9.873448">
  1067.     <ele>59.010</ele>
  1068.     <time>2010-09-17T16:00:25Z</time>
  1069.    </trkpt>
  1070.    <trkpt lat="53.208171" lon="9.873473">
  1071.     <ele>58.145</ele>
  1072.     <time>2010-09-17T16:00:28Z</time>
  1073.    </trkpt>
  1074.    <trkpt lat="53.208182" lon="9.873615">
  1075.     <ele>61.591</ele>
  1076.     <time>2010-09-17T16:00:37Z</time>
  1077.    </trkpt>
  1078.    <trkpt lat="53.208144" lon="9.873709">
  1079.     <ele>65.748</ele>
  1080.     <time>2010-09-17T16:00:44Z</time>
  1081.    </trkpt>
  1082.    <trkpt lat="53.208124" lon="9.873825">
  1083.     <ele>63.949</ele>
  1084.     <time>2010-09-17T16:00:58Z</time>
  1085.    </trkpt>
  1086.    <trkpt lat="53.208111" lon="9.873836">
  1087.     <ele>63.316</ele>
  1088.     <time>2010-09-17T16:01:33Z</time>
  1089.    </trkpt>
  1090.    <trkpt lat="53.208096" lon="9.873875">
  1091.     <ele>64.851</ele>
  1092.     <time>2010-09-17T16:02:07Z</time>
  1093.    </trkpt>
  1094.    <trkpt lat="53.208125" lon="9.873856">
  1095.     <ele>63.095</ele>
  1096.     <time>2010-09-17T16:02:23Z</time>
  1097.    </trkpt>
  1098.    <trkpt lat="53.208113" lon="9.873863">
  1099.     <ele>62.178</ele>
  1100.     <time>2010-09-17T16:02:58Z</time>
  1101.    </trkpt>
  1102.    <trkpt lat="53.208091" lon="9.873871">
  1103.     <ele>61.617</ele>
  1104.     <time>2010-09-17T16:03:06Z</time>
  1105.    </trkpt>
  1106.    <trkpt lat="53.208097" lon="9.873897">
  1107.     <ele>57.827</ele>
  1108.     <time>2010-09-17T16:03:25Z</time>
  1109.    </trkpt>
  1110.    <trkpt lat="53.208091" lon="9.873951">
  1111.     <ele>57.788</ele>
  1112.     <time>2010-09-17T16:03:28Z</time>
  1113.    </trkpt>
  1114.    <trkpt lat="53.208087" lon="9.873948">
  1115.     <ele>60.610</ele>
  1116.     <time>2010-09-17T16:03:43Z</time>
  1117.    </trkpt>
  1118.    <trkpt lat="53.208088" lon="9.873980">
  1119.     <ele>61.734</ele>
  1120.     <time>2010-09-17T16:04:21Z</time>
  1121.    </trkpt>
  1122.    <trkpt lat="53.208094" lon="9.873989">
  1123.     <ele>61.899</ele>
  1124.     <time>2010-09-17T16:04:47Z</time>
  1125.    </trkpt>
  1126.    <trkpt lat="53.208097" lon="9.873985">
  1127.     <ele>59.977</ele>
  1128.     <time>2010-09-17T16:06:14Z</time>
  1129.    </trkpt>
  1130.    <trkpt lat="53.208123" lon="9.873996">
  1131.     <ele>58.679</ele>
  1132.     <time>2010-09-17T16:07:02Z</time>
  1133.    </trkpt>
  1134.    <trkpt lat="53.208131" lon="9.873997">
  1135.     <ele>56.605</ele>
  1136.     <time>2010-09-17T16:07:18Z</time>
  1137.    </trkpt>
  1138.    <trkpt lat="53.208188" lon="9.874027">
  1139.     <ele>57.385</ele>
  1140.     <time>2010-09-17T16:08:16Z</time>
  1141.    </trkpt>
  1142.    <trkpt lat="53.208188" lon="9.874028">
  1143.     <ele>57.408</ele>
  1144.     <time>2010-09-17T16:08:17Z</time>
  1145.    </trkpt>
  1146.    <trkpt lat="53.208186" lon="9.874067">
  1147.     <ele>56.750</ele>
  1148.     <time>2010-09-17T16:08:30Z</time>
  1149.    </trkpt>
  1150.    <trkpt lat="53.208132" lon="9.874065">
  1151.     <ele>56.894</ele>
  1152.     <time>2010-09-17T16:10:17Z</time>
  1153.    </trkpt>
  1154.    <trkpt lat="53.208119" lon="9.873877">
  1155.     <ele>57.291</ele>
  1156.     <time>2010-09-17T16:10:40Z</time>
  1157.    </trkpt>
  1158.    <trkpt lat="53.208054" lon="9.873917">
  1159.     <ele>55.223</ele>
  1160.     <time>2010-09-17T16:13:18Z</time>
  1161.    </trkpt>
  1162.    <trkpt lat="53.208115" lon="9.873945">
  1163.     <ele>50.405</ele>
  1164.     <time>2010-09-17T16:13:48Z</time>
  1165.    </trkpt>
  1166.    <trkpt lat="53.208126" lon="9.874011">
  1167.     <ele>54.462</ele>
  1168.     <time>2010-09-17T16:16:12Z</time>
  1169.    </trkpt>
  1170.    <trkpt lat="53.208082" lon="9.873986">
  1171.     <ele>55.356</ele>
  1172.     <time>2010-09-17T16:16:42Z</time>
  1173.    </trkpt>
  1174.    <trkpt lat="53.208071" lon="9.873902">
  1175.     <ele>57.215</ele>
  1176.     <time>2010-09-17T16:17:14Z</time>
  1177.    </trkpt>
  1178.    <trkpt lat="53.208056" lon="9.873930">
  1179.     <ele>56.610</ele>
  1180.     <time>2010-09-17T16:17:47Z</time>
  1181.    </trkpt>
  1182.    <trkpt lat="53.208041" lon="9.873917">
  1183.     <ele>56.744</ele>
  1184.     <time>2010-09-17T16:17:49Z</time>
  1185.    </trkpt>
  1186.    <trkpt lat="53.207928" lon="9.874044">
  1187.     <ele>58.122</ele>
  1188.     <time>2010-09-17T16:18:04Z</time>
  1189.    </trkpt>
  1190.    <trkpt lat="53.207865" lon="9.874202">
  1191.     <ele>56.667</ele>
  1192.     <time>2010-09-17T16:18:18Z</time>
  1193.    </trkpt>
  1194.    <trkpt lat="53.207854" lon="9.874319">
  1195.     <ele>58.936</ele>
  1196.     <time>2010-09-17T16:18:30Z</time>
  1197.    </trkpt>
  1198.    <trkpt lat="53.207827" lon="9.874366">
  1199.     <ele>60.138</ele>
  1200.     <time>2010-09-17T16:18:34Z</time>
  1201.    </trkpt>
  1202.    <trkpt lat="53.207819" lon="9.874400">
  1203.     <ele>59.935</ele>
  1204.     <time>2010-09-17T16:18:36Z</time>
  1205.    </trkpt>
  1206.    <trkpt lat="53.207799" lon="9.874438">
  1207.     <ele>59.454</ele>
  1208.     <time>2010-09-17T16:18:38Z</time>
  1209.    </trkpt>
  1210.    <trkpt lat="53.207837" lon="9.874428">
  1211.     <ele>57.113</ele>
  1212.     <time>2010-09-17T16:18:53Z</time>
  1213.    </trkpt>
  1214.    <trkpt lat="53.207831" lon="9.874434">
  1215.     <ele>56.834</ele>
  1216.     <time>2010-09-17T16:19:32Z</time>
  1217.    </trkpt>
  1218.    <trkpt lat="53.207954" lon="9.874445">
  1219.     <ele>52.176</ele>
  1220.     <time>2010-09-17T16:19:46Z</time>
  1221.    </trkpt>
  1222.    <trkpt lat="53.208249" lon="9.874536">
  1223.     <ele>46.368</ele>
  1224.     <time>2010-09-17T16:20:08Z</time>
  1225.    </trkpt>
  1226.    <trkpt lat="53.208259" lon="9.874513">
  1227.     <ele>46.294</ele>
  1228.     <time>2010-09-17T16:20:09Z</time>
  1229.    </trkpt>
  1230.    <trkpt lat="53.208433" lon="9.874494">
  1231.     <ele>48.701</ele>
  1232.     <time>2010-09-17T16:20:23Z</time>
  1233.    </trkpt>
  1234.    <trkpt lat="53.208461" lon="9.874496">
  1235.     <ele>47.880</ele>
  1236.     <time>2010-09-17T16:20:25Z</time>
  1237.    </trkpt>
  1238.    <trkpt lat="53.208532" lon="9.874491">
  1239.     <ele>46.506</ele>
  1240.     <time>2010-09-17T16:20:33Z</time>
  1241.    </trkpt>
  1242.    <trkpt lat="53.208691" lon="9.874549">
  1243.     <ele>41.263</ele>
  1244.     <time>2010-09-17T16:20:48Z</time>
  1245.    </trkpt>
  1246.    <trkpt lat="53.209015" lon="9.874685">
  1247.     <ele>34.292</ele>
  1248.     <time>2010-09-17T16:21:17Z</time>
  1249.    </trkpt>
  1250.    <trkpt lat="53.209193" lon="9.874675">
  1251.     <ele>33.126</ele>
  1252.     <time>2010-09-17T16:21:31Z</time>
  1253.    </trkpt>
  1254.    <trkpt lat="53.209253" lon="9.874680">
  1255.     <ele>32.456</ele>
  1256.     <time>2010-09-17T16:21:35Z</time>
  1257.    </trkpt>
  1258.    <trkpt lat="53.209323" lon="9.874682">
  1259.     <ele>32.742</ele>
  1260.     <time>2010-09-17T16:21:40Z</time>
  1261.    </trkpt>
  1262.    <trkpt lat="53.209541" lon="9.874683">
  1263.     <ele>34.407</ele>
  1264.     <time>2010-09-17T16:21:59Z</time>
  1265.    </trkpt>
  1266.    <trkpt lat="53.209701" lon="9.874746">
  1267.     <ele>38.365</ele>
  1268.     <time>2010-09-17T16:22:13Z</time>
  1269.    </trkpt>
  1270.    <trkpt lat="53.209855" lon="9.874770">
  1271.     <ele>40.128</ele>
  1272.     <time>2010-09-17T16:22:25Z</time>
  1273.    </trkpt>
  1274.    <trkpt lat="53.210086" lon="9.874833">
  1275.     <ele>42.083</ele>
  1276.     <time>2010-09-17T16:22:41Z</time>
  1277.    </trkpt>
  1278.    <trkpt lat="53.210287" lon="9.874693">
  1279.     <ele>44.218</ele>
  1280.     <time>2010-09-17T16:22:58Z</time>
  1281.    </trkpt>
  1282.    <trkpt lat="53.210396" lon="9.874591">
  1283.     <ele>43.989</ele>
  1284.     <time>2010-09-17T16:23:14Z</time>
  1285.    </trkpt>
  1286.    <trkpt lat="53.210505" lon="9.874546">
  1287.     <ele>42.894</ele>
  1288.     <time>2010-09-17T16:23:25Z</time>
  1289.    </trkpt>
  1290.    <trkpt lat="53.210674" lon="9.874440">
  1291.     <ele>41.625</ele>
  1292.     <time>2010-09-17T16:23:37Z</time>
  1293.    </trkpt>
  1294.    <trkpt lat="53.210975" lon="9.874266">
  1295.     <ele>38.082</ele>
  1296.     <time>2010-09-17T16:24:04Z</time>
  1297.    </trkpt>
  1298.    <trkpt lat="53.211042" lon="9.874209">
  1299.     <ele>37.153</ele>
  1300.     <time>2010-09-17T16:24:11Z</time>
  1301.    </trkpt>
  1302.    <trkpt lat="53.211386" lon="9.873929">
  1303.     <ele>33.728</ele>
  1304.     <time>2010-09-17T16:24:44Z</time>
  1305.    </trkpt>
  1306.    <trkpt lat="53.211663" lon="9.873740">
  1307.     <ele>31.627</ele>
  1308.     <time>2010-09-17T16:25:12Z</time>
  1309.    </trkpt>
  1310.    <trkpt lat="53.211774" lon="9.873602">
  1311.     <ele>32.183</ele>
  1312.     <time>2010-09-17T16:25:27Z</time>
  1313.    </trkpt>
  1314.    <trkpt lat="53.211771" lon="9.873604">
  1315.     <ele>32.910</ele>
  1316.     <time>2010-09-17T16:26:31Z</time>
  1317.    </trkpt>
  1318.    <trkpt lat="53.211789" lon="9.873631">
  1319.     <ele>35.540</ele>
  1320.     <time>2010-09-17T16:27:06Z</time>
  1321.    </trkpt>
  1322.    <trkpt lat="53.211839" lon="9.873594">
  1323.     <ele>40.118</ele>
  1324.     <time>2010-09-17T16:27:21Z</time>
  1325.    </trkpt>
  1326.    <trkpt lat="53.212050" lon="9.873403">
  1327.     <ele>37.682</ele>
  1328.     <time>2010-09-17T16:27:39Z</time>
  1329.    </trkpt>
  1330.    <trkpt lat="53.212079" lon="9.873360">
  1331.     <ele>36.506</ele>
  1332.     <time>2010-09-17T16:27:43Z</time>
  1333.    </trkpt>
  1334.    <trkpt lat="53.212155" lon="9.873263">
  1335.     <ele>34.736</ele>
  1336.     <time>2010-09-17T16:27:51Z</time>
  1337.    </trkpt>
  1338.    <trkpt lat="53.212270" lon="9.873282">
  1339.     <ele>39.160</ele>
  1340.     <time>2010-09-17T16:28:00Z</time>
  1341.    </trkpt>
  1342.    <trkpt lat="53.212352" lon="9.873221">
  1343.     <ele>38.550</ele>
  1344.     <time>2010-09-17T16:28:09Z</time>
  1345.    </trkpt>
  1346.    <trkpt lat="53.212502" lon="9.873136">
  1347.     <ele>38.898</ele>
  1348.     <time>2010-09-17T16:28:22Z</time>
  1349.    </trkpt>
  1350.    <trkpt lat="53.212680" lon="9.872984">
  1351.     <ele>42.048</ele>
  1352.     <time>2010-09-17T16:28:37Z</time>
  1353.    </trkpt>
  1354.    <trkpt lat="53.212769" lon="9.872892">
  1355.     <ele>41.330</ele>
  1356.     <time>2010-09-17T16:28:47Z</time>
  1357.    </trkpt>
  1358.    <trkpt lat="53.212817" lon="9.872862">
  1359.     <ele>41.789</ele>
  1360.     <time>2010-09-17T16:28:52Z</time>
  1361.    </trkpt>
  1362.    <trkpt lat="53.213011" lon="9.872708">
  1363.     <ele>43.675</ele>
  1364.     <time>2010-09-17T16:29:09Z</time>
  1365.    </trkpt>
  1366.    <trkpt lat="53.213059" lon="9.872678">
  1367.     <ele>44.601</ele>
  1368.     <time>2010-09-17T16:29:13Z</time>
  1369.    </trkpt>
  1370.    <trkpt lat="53.213245" lon="9.872505">
  1371.     <ele>46.321</ele>
  1372.     <time>2010-09-17T16:29:32Z</time>
  1373.    </trkpt>
  1374.    <trkpt lat="53.213531" lon="9.872348">
  1375.     <ele>45.267</ele>
  1376.     <time>2010-09-17T16:29:53Z</time>
  1377.    </trkpt>
  1378.    <trkpt lat="53.213567" lon="9.872300">
  1379.     <ele>45.224</ele>
  1380.     <time>2010-09-17T16:29:56Z</time>
  1381.    </trkpt>
  1382.    <trkpt lat="53.213768" lon="9.872167">
  1383.     <ele>44.425</ele>
  1384.     <time>2010-09-17T16:30:14Z</time>
  1385.    </trkpt>
  1386.    <trkpt lat="53.213877" lon="9.872107">
  1387.     <ele>43.982</ele>
  1388.     <time>2010-09-17T16:30:24Z</time>
  1389.    </trkpt>
  1390.    <trkpt lat="53.214039" lon="9.872047">
  1391.     <ele>42.579</ele>
  1392.     <time>2010-09-17T16:30:37Z</time>
  1393.    </trkpt>
  1394.    <trkpt lat="53.214323" lon="9.871848">
  1395.     <ele>43.338</ele>
  1396.     <time>2010-09-17T16:31:01Z</time>
  1397.    </trkpt>
  1398.    <trkpt lat="53.214643" lon="9.871629">
  1399.     <ele>41.921</ele>
  1400.     <time>2010-09-17T16:31:29Z</time>
  1401.    </trkpt>
  1402.    <trkpt lat="53.214916" lon="9.871428">
  1403.     <ele>42.921</ele>
  1404.     <time>2010-09-17T16:31:52Z</time>
  1405.    </trkpt>
  1406.    <trkpt lat="53.215225" lon="9.871252">
  1407.     <ele>40.045</ele>
  1408.     <time>2010-09-17T16:32:17Z</time>
  1409.    </trkpt>
  1410.    <trkpt lat="53.215522" lon="9.871035">
  1411.     <ele>39.651</ele>
  1412.     <time>2010-09-17T16:32:44Z</time>
  1413.    </trkpt>
  1414.    <trkpt lat="53.215792" lon="9.870806">
  1415.     <ele>42.256</ele>
  1416.     <time>2010-09-17T16:33:07Z</time>
  1417.    </trkpt>
  1418.    <trkpt lat="53.216019" lon="9.870621">
  1419.     <ele>42.377</ele>
  1420.     <time>2010-09-17T16:33:28Z</time>
  1421.    </trkpt>
  1422.    <trkpt lat="53.216343" lon="9.870327">
  1423.     <ele>41.535</ele>
  1424.     <time>2010-09-17T16:33:57Z</time>
  1425.    </trkpt>
  1426.    <trkpt lat="53.216444" lon="9.870117">
  1427.     <ele>39.074</ele>
  1428.     <time>2010-09-17T16:34:10Z</time>
  1429.    </trkpt>
  1430.    <trkpt lat="53.216628" lon="9.869696">
  1431.     <ele>37.495</ele>
  1432.     <time>2010-09-17T16:34:34Z</time>
  1433.    </trkpt>
  1434.    <trkpt lat="53.216636" lon="9.869677">
  1435.     <ele>37.503</ele>
  1436.     <time>2010-09-17T16:34:35Z</time>
  1437.    </trkpt>
  1438.    <trkpt lat="53.216657" lon="9.869589">
  1439.     <ele>38.621</ele>
  1440.     <time>2010-09-17T16:34:39Z</time>
  1441.    </trkpt>
  1442.    <trkpt lat="53.216841" lon="9.869147">
  1443.     <ele>42.526</ele>
  1444.     <time>2010-09-17T16:35:02Z</time>
  1445.    </trkpt>
  1446.    <trkpt lat="53.216941" lon="9.868915">
  1447.     <ele>41.720</ele>
  1448.     <time>2010-09-17T16:35:15Z</time>
  1449.    </trkpt>
  1450.    <trkpt lat="53.217069" lon="9.868575">
  1451.     <ele>42.321</ele>
  1452.     <time>2010-09-17T16:35:31Z</time>
  1453.    </trkpt>
  1454.    <trkpt lat="53.217224" lon="9.868169">
  1455.     <ele>43.545</ele>
  1456.     <time>2010-09-17T16:35:52Z</time>
  1457.    </trkpt>
  1458.    <trkpt lat="53.217350" lon="9.867854">
  1459.     <ele>41.193</ele>
  1460.     <time>2010-09-17T16:36:10Z</time>
  1461.    </trkpt>
  1462.    <trkpt lat="53.217361" lon="9.867788">
  1463.     <ele>40.034</ele>
  1464.     <time>2010-09-17T16:36:22Z</time>
  1465.    </trkpt>
  1466.    <trkpt lat="53.217446" lon="9.867543">
  1467.     <ele>39.296</ele>
  1468.     <time>2010-09-17T16:37:12Z</time>
  1469.    </trkpt>
  1470.    <trkpt lat="53.217509" lon="9.867395">
  1471.     <ele>36.428</ele>
  1472.     <time>2010-09-17T16:37:21Z</time>
  1473.    </trkpt>
  1474.    <trkpt lat="53.217527" lon="9.867300">
  1475.     <ele>36.409</ele>
  1476.     <time>2010-09-17T16:37:25Z</time>
  1477.    </trkpt>
  1478.    <trkpt lat="53.217550" lon="9.867226">
  1479.     <ele>36.559</ele>
  1480.     <time>2010-09-17T16:37:30Z</time>
  1481.    </trkpt>
  1482.    <trkpt lat="53.217650" lon="9.866784">
  1483.     <ele>34.462</ele>
  1484.     <time>2010-09-17T16:37:51Z</time>
  1485.    </trkpt>
  1486.    <trkpt lat="53.217785" lon="9.866171">
  1487.     <ele>34.637</ele>
  1488.     <time>2010-09-17T16:38:20Z</time>
  1489.    </trkpt>
  1490.    <trkpt lat="53.217905" lon="9.865861">
  1491.     <ele>28.261</ele>
  1492.     <time>2010-09-17T16:38:39Z</time>
  1493.    </trkpt>
  1494.    <trkpt lat="53.218002" lon="9.865563">
  1495.     <ele>27.052</ele>
  1496.     <time>2010-09-17T16:38:54Z</time>
  1497.    </trkpt>
  1498.    <trkpt lat="53.218012" lon="9.865493">
  1499.     <ele>27.156</ele>
  1500.     <time>2010-09-17T16:38:57Z</time>
  1501.    </trkpt>
  1502.    <trkpt lat="53.218148" lon="9.864984">
  1503.     <ele>29.869</ele>
  1504.     <time>2010-09-17T16:39:20Z</time>
  1505.    </trkpt>
  1506.    <trkpt lat="53.218154" lon="9.864958">
  1507.     <ele>30.055</ele>
  1508.     <time>2010-09-17T16:39:21Z</time>
  1509.    </trkpt>
  1510.    <trkpt lat="53.218198" lon="9.864692">
  1511.     <ele>33.638</ele>
  1512.     <time>2010-09-17T16:39:33Z</time>
  1513.    </trkpt>
  1514.    <trkpt lat="53.218204" lon="9.864550">
  1515.     <ele>34.569</ele>
  1516.     <time>2010-09-17T16:39:39Z</time>
  1517.    </trkpt>
  1518.    <trkpt lat="53.218259" lon="9.864430">
  1519.     <ele>35.450</ele>
  1520.     <time>2010-09-17T16:39:46Z</time>
  1521.    </trkpt>
  1522.    <trkpt lat="53.218290" lon="9.864291">
  1523.     <ele>37.134</ele>
  1524.     <time>2010-09-17T16:39:52Z</time>
  1525.    </trkpt>
  1526.    <trkpt lat="53.218296" lon="9.864248">
  1527.     <ele>37.396</ele>
  1528.     <time>2010-09-17T16:39:54Z</time>
  1529.    </trkpt>
  1530.    <trkpt lat="53.218337" lon="9.864151">
  1531.     <ele>37.540</ele>
  1532.     <time>2010-09-17T16:39:59Z</time>
  1533.    </trkpt>
  1534.    <trkpt lat="53.218374" lon="9.864050">
  1535.     <ele>38.258</ele>
  1536.     <time>2010-09-17T16:40:04Z</time>
  1537.    </trkpt>
  1538.    <trkpt lat="53.218406" lon="9.863763">
  1539.     <ele>38.917</ele>
  1540.     <time>2010-09-17T16:40:14Z</time>
  1541.    </trkpt>
  1542.    <trkpt lat="53.218521" lon="9.863441">
  1543.     <ele>39.072</ele>
  1544.     <time>2010-09-17T16:40:26Z</time>
  1545.    </trkpt>
  1546.    <trkpt lat="53.218570" lon="9.863344">
  1547.     <ele>39.085</ele>
  1548.     <time>2010-09-17T16:40:30Z</time>
  1549.    </trkpt>
  1550.    <trkpt lat="53.218586" lon="9.863245">
  1551.     <ele>38.998</ele>
  1552.     <time>2010-09-17T16:40:33Z</time>
  1553.    </trkpt>
  1554.    <trkpt lat="53.218599" lon="9.862982">
  1555.     <ele>39.401</ele>
  1556.     <time>2010-09-17T16:40:44Z</time>
  1557.    </trkpt>
  1558.    <trkpt lat="53.218618" lon="9.862950">
  1559.     <ele>39.257</ele>
  1560.     <time>2010-09-17T16:40:46Z</time>
  1561.    </trkpt>
  1562.    <trkpt lat="53.218725" lon="9.862642">
  1563.     <ele>42.929</ele>
  1564.     <time>2010-09-17T16:41:03Z</time>
  1565.    </trkpt>
  1566.    <trkpt lat="53.218741" lon="9.862606">
  1567.     <ele>43.333</ele>
  1568.     <time>2010-09-17T16:41:05Z</time>
  1569.    </trkpt>
  1570.    <trkpt lat="53.218837" lon="9.862170">
  1571.     <ele>43.414</ele>
  1572.     <time>2010-09-17T16:41:26Z</time>
  1573.    </trkpt>
  1574.    <trkpt lat="53.218836" lon="9.862122">
  1575.     <ele>43.500</ele>
  1576.     <time>2010-09-17T16:41:28Z</time>
  1577.    </trkpt>
  1578.    <trkpt lat="53.218908" lon="9.861842">
  1579.     <ele>44.804</ele>
  1580.     <time>2010-09-17T16:41:42Z</time>
  1581.    </trkpt>
  1582.    <trkpt lat="53.219009" lon="9.861627">
  1583.     <ele>45.941</ele>
  1584.     <time>2010-09-17T16:41:52Z</time>
  1585.    </trkpt>
  1586.    <trkpt lat="53.219067" lon="9.861387">
  1587.     <ele>45.638</ele>
  1588.     <time>2010-09-17T16:42:03Z</time>
  1589.    </trkpt>
  1590.    <trkpt lat="53.219118" lon="9.861241">
  1591.     <ele>46.179</ele>
  1592.     <time>2010-09-17T16:42:10Z</time>
  1593.    </trkpt>
  1594.    <trkpt lat="53.219126" lon="9.861193">
  1595.     <ele>45.214</ele>
  1596.     <time>2010-09-17T16:42:13Z</time>
  1597.    </trkpt>
  1598.    <trkpt lat="53.219145" lon="9.861156">
  1599.     <ele>45.400</ele>
  1600.     <time>2010-09-17T16:42:15Z</time>
  1601.    </trkpt>
  1602.    <trkpt lat="53.219234" lon="9.860710">
  1603.     <ele>45.057</ele>
  1604.     <time>2010-09-17T16:42:36Z</time>
  1605.    </trkpt>
  1606.    <trkpt lat="53.219260" lon="9.860474">
  1607.     <ele>45.449</ele>
  1608.     <time>2010-09-17T16:42:46Z</time>
  1609.    </trkpt>
  1610.    <trkpt lat="53.219320" lon="9.860206">
  1611.     <ele>44.449</ele>
  1612.     <time>2010-09-17T16:42:59Z</time>
  1613.    </trkpt>
  1614.    <trkpt lat="53.219360" lon="9.860082">
  1615.     <ele>43.855</ele>
  1616.     <time>2010-09-17T16:43:06Z</time>
  1617.    </trkpt>
  1618.    <trkpt lat="53.219388" lon="9.859982">
  1619.     <ele>44.288</ele>
  1620.     <time>2010-09-17T16:43:10Z</time>
  1621.    </trkpt>
  1622.    <trkpt lat="53.219465" lon="9.859705">
  1623.     <ele>44.734</ele>
  1624.     <time>2010-09-17T16:43:24Z</time>
  1625.    </trkpt>
  1626.    <trkpt lat="53.219535" lon="9.859509">
  1627.     <ele>44.079</ele>
  1628.     <time>2010-09-17T16:43:35Z</time>
  1629.    </trkpt>
  1630.    <trkpt lat="53.219615" lon="9.859306">
  1631.     <ele>45.615</ele>
  1632.     <time>2010-09-17T16:43:48Z</time>
  1633.    </trkpt>
  1634.    <trkpt lat="53.219677" lon="9.859112">
  1635.     <ele>45.630</ele>
  1636.     <time>2010-09-17T16:43:58Z</time>
  1637.    </trkpt>
  1638.    <trkpt lat="53.219691" lon="9.859013">
  1639.     <ele>46.484</ele>
  1640.     <time>2010-09-17T16:44:03Z</time>
  1641.    </trkpt>
  1642.    <trkpt lat="53.219707" lon="9.858943">
  1643.     <ele>47.436</ele>
  1644.     <time>2010-09-17T16:44:07Z</time>
  1645.    </trkpt>
  1646.    <trkpt lat="53.219787" lon="9.858420">
  1647.     <ele>44.939</ele>
  1648.     <time>2010-09-17T16:44:32Z</time>
  1649.    </trkpt>
  1650.    <trkpt lat="53.219843" lon="9.857958">
  1651.     <ele>43.994</ele>
  1652.     <time>2010-09-17T16:44:53Z</time>
  1653.    </trkpt>
  1654.    <trkpt lat="53.219869" lon="9.857770">
  1655.     <ele>43.949</ele>
  1656.     <time>2010-09-17T16:45:02Z</time>
  1657.    </trkpt>
  1658.    <trkpt lat="53.219893" lon="9.857689">
  1659.     <ele>44.216</ele>
  1660.     <time>2010-09-17T16:45:06Z</time>
  1661.    </trkpt>
  1662.    <trkpt lat="53.219968" lon="9.857377">
  1663.     <ele>40.873</ele>
  1664.     <time>2010-09-17T16:45:24Z</time>
  1665.    </trkpt>
  1666.    <trkpt lat="53.220026" lon="9.856879">
  1667.     <ele>42.834</ele>
  1668.     <time>2010-09-17T16:45:46Z</time>
  1669.    </trkpt>
  1670.    <trkpt lat="53.220102" lon="9.856388">
  1671.     <ele>42.304</ele>
  1672.     <time>2010-09-17T16:46:11Z</time>
  1673.    </trkpt>
  1674.    <trkpt lat="53.220194" lon="9.855804">
  1675.     <ele>42.010</ele>
  1676.     <time>2010-09-17T16:46:37Z</time>
  1677.    </trkpt>
  1678.    <trkpt lat="53.220276" lon="9.855215">
  1679.     <ele>42.371</ele>
  1680.     <time>2010-09-17T16:47:03Z</time>
  1681.    </trkpt>
  1682.    <trkpt lat="53.220392" lon="9.854652">
  1683.     <ele>42.716</ele>
  1684.     <time>2010-09-17T16:47:30Z</time>
  1685.    </trkpt>
  1686.    <trkpt lat="53.220477" lon="9.853998">
  1687.     <ele>42.665</ele>
  1688.     <time>2010-09-17T16:47:59Z</time>
  1689.    </trkpt>
  1690.    <trkpt lat="53.220569" lon="9.853453">
  1691.     <ele>42.491</ele>
  1692.     <time>2010-09-17T16:48:26Z</time>
  1693.    </trkpt>
  1694.    <trkpt lat="53.220622" lon="9.853148">
  1695.     <ele>41.679</ele>
  1696.     <time>2010-09-17T16:48:44Z</time>
  1697.    </trkpt>
  1698.    <trkpt lat="53.220706" lon="9.852585">
  1699.     <ele>43.072</ele>
  1700.     <time>2010-09-17T16:49:12Z</time>
  1701.    </trkpt>
  1702.    <trkpt lat="53.220739" lon="9.852419">
  1703.     <ele>41.657</ele>
  1704.     <time>2010-09-17T16:49:25Z</time>
  1705.    </trkpt>
  1706.    <trkpt lat="53.220835" lon="9.851985">
  1707.     <ele>38.431</ele>
  1708.     <time>2010-09-17T16:49:47Z</time>
  1709.    </trkpt>
  1710.    <trkpt lat="53.220918" lon="9.851325">
  1711.     <ele>36.957</ele>
  1712.     <time>2010-09-17T16:50:18Z</time>
  1713.    </trkpt>
  1714.    <trkpt lat="53.220962" lon="9.851024">
  1715.     <ele>37.329</ele>
  1716.     <time>2010-09-17T16:50:32Z</time>
  1717.    </trkpt>
  1718.    <trkpt lat="53.220969" lon="9.850924">
  1719.     <ele>37.307</ele>
  1720.     <time>2010-09-17T16:50:36Z</time>
  1721.    </trkpt>
  1722.    <trkpt lat="53.221035" lon="9.850420">
  1723.     <ele>38.151</ele>
  1724.     <time>2010-09-17T16:50:58Z</time>
  1725.    </trkpt>
  1726.    <trkpt lat="53.221055" lon="9.850346">
  1727.     <ele>36.643</ele>
  1728.     <time>2010-09-17T16:51:03Z</time>
  1729.    </trkpt>
  1730.    <trkpt lat="53.221111" lon="9.850088">
  1731.     <ele>34.502</ele>
  1732.     <time>2010-09-17T16:51:15Z</time>
  1733.    </trkpt>
  1734.    <trkpt lat="53.221142" lon="9.849881">
  1735.     <ele>34.122</ele>
  1736.     <time>2010-09-17T16:51:25Z</time>
  1737.    </trkpt>
  1738.    <trkpt lat="53.221183" lon="9.849453">
  1739.     <ele>35.789</ele>
  1740.     <time>2010-09-17T16:51:43Z</time>
  1741.    </trkpt>
  1742.    <trkpt lat="53.221252" lon="9.849083">
  1743.     <ele>37.184</ele>
  1744.     <time>2010-09-17T16:51:59Z</time>
  1745.    </trkpt>
  1746.    <trkpt lat="53.221296" lon="9.848971">
  1747.     <ele>37.496</ele>
  1748.     <time>2010-09-17T16:52:05Z</time>
  1749.    </trkpt>
  1750.    <trkpt lat="53.221299" lon="9.848932">
  1751.     <ele>37.458</ele>
  1752.     <time>2010-09-17T16:52:07Z</time>
  1753.    </trkpt>
  1754.    <trkpt lat="53.221307" lon="9.848838">
  1755.     <ele>38.834</ele>
  1756.     <time>2010-09-17T16:52:11Z</time>
  1757.    </trkpt>
  1758.    <trkpt lat="53.221367" lon="9.848463">
  1759.     <ele>42.143</ele>
  1760.     <time>2010-09-17T16:52:29Z</time>
  1761.    </trkpt>
  1762.    <trkpt lat="53.221374" lon="9.848397">
  1763.     <ele>42.452</ele>
  1764.     <time>2010-09-17T16:52:32Z</time>
  1765.    </trkpt>
  1766.    <trkpt lat="53.221507" lon="9.847978">
  1767.     <ele>41.035</ele>
  1768.     <time>2010-09-17T16:52:54Z</time>
  1769.    </trkpt>
  1770.    <trkpt lat="53.221509" lon="9.847919">
  1771.     <ele>40.866</ele>
  1772.     <time>2010-09-17T16:52:57Z</time>
  1773.    </trkpt>
  1774.    <trkpt lat="53.221587" lon="9.847570">
  1775.     <ele>40.452</ele>
  1776.     <time>2010-09-17T16:53:13Z</time>
  1777.    </trkpt>
  1778.    <trkpt lat="53.221697" lon="9.847122">
  1779.     <ele>38.536</ele>
  1780.     <time>2010-09-17T16:53:38Z</time>
  1781.    </trkpt>
  1782.    <trkpt lat="53.221765" lon="9.846821">
  1783.     <ele>38.331</ele>
  1784.     <time>2010-09-17T16:53:53Z</time>
  1785.    </trkpt>
  1786.    <trkpt lat="53.221845" lon="9.846485">
  1787.     <ele>38.558</ele>
  1788.     <time>2010-09-17T16:54:10Z</time>
  1789.    </trkpt>
  1790.    <trkpt lat="53.221864" lon="9.846433">
  1791.     <ele>38.339</ele>
  1792.     <time>2010-09-17T16:54:13Z</time>
  1793.    </trkpt>
  1794.    <trkpt lat="53.221891" lon="9.846295">
  1795.     <ele>38.299</ele>
  1796.     <time>2010-09-17T16:54:20Z</time>
  1797.    </trkpt>
  1798.    <trkpt lat="53.221887" lon="9.845993">
  1799.     <ele>39.295</ele>
  1800.     <time>2010-09-17T16:54:34Z</time>
  1801.    </trkpt>
  1802.    <trkpt lat="53.221851" lon="9.845809">
  1803.     <ele>40.570</ele>
  1804.     <time>2010-09-17T16:54:43Z</time>
  1805.    </trkpt>
  1806.    <trkpt lat="53.221834" lon="9.845625">
  1807.     <ele>41.347</ele>
  1808.     <time>2010-09-17T16:54:53Z</time>
  1809.    </trkpt>
  1810.    <trkpt lat="53.221842" lon="9.845469">
  1811.     <ele>40.617</ele>
  1812.     <time>2010-09-17T16:54:57Z</time>
  1813.    </trkpt>
  1814.    <trkpt lat="53.221841" lon="9.845394">
  1815.     <ele>40.202</ele>
  1816.     <time>2010-09-17T16:55:01Z</time>
  1817.    </trkpt>
  1818.    <trkpt lat="53.221842" lon="9.845158">
  1819.     <ele>40.435</ele>
  1820.     <time>2010-09-17T16:55:10Z</time>
  1821.    </trkpt>
  1822.    <trkpt lat="53.221885" lon="9.844774">
  1823.     <ele>36.820</ele>
  1824.     <time>2010-09-17T16:55:28Z</time>
  1825.    </trkpt>
  1826.    <trkpt lat="53.221903" lon="9.844512">
  1827.     <ele>34.916</ele>
  1828.     <time>2010-09-17T16:55:41Z</time>
  1829.    </trkpt>
  1830.    <trkpt lat="53.221913" lon="9.844432">
  1831.     <ele>34.447</ele>
  1832.     <time>2010-09-17T16:55:45Z</time>
  1833.    </trkpt>
  1834.    <trkpt lat="53.221933" lon="9.844390">
  1835.     <ele>34.144</ele>
  1836.     <time>2010-09-17T16:56:04Z</time>
  1837.    </trkpt>
  1838.    <trkpt lat="53.221984" lon="9.844386">
  1839.     <ele>33.458</ele>
  1840.     <time>2010-09-17T16:56:21Z</time>
  1841.    </trkpt>
  1842.    <trkpt lat="53.221994" lon="9.844294">
  1843.     <ele>31.531</ele>
  1844.     <time>2010-09-17T16:56:53Z</time>
  1845.    </trkpt>
  1846.    <trkpt lat="53.222039" lon="9.844221">
  1847.     <ele>30.987</ele>
  1848.     <time>2010-09-17T16:57:04Z</time>
  1849.    </trkpt>
  1850.    <trkpt lat="53.222108" lon="9.844150">
  1851.     <ele>32.059</ele>
  1852.     <time>2010-09-17T16:57:12Z</time>
  1853.    </trkpt>
  1854.    <trkpt lat="53.222132" lon="9.844085">
  1855.     <ele>31.248</ele>
  1856.     <time>2010-09-17T16:57:18Z</time>
  1857.    </trkpt>
  1858.    <trkpt lat="53.222191" lon="9.844004">
  1859.     <ele>31.913</ele>
  1860.     <time>2010-09-17T16:57:29Z</time>
  1861.    </trkpt>
  1862.    <trkpt lat="53.222258" lon="9.844030">
  1863.     <ele>33.014</ele>
  1864.     <time>2010-09-17T16:57:35Z</time>
  1865.    </trkpt>
  1866.    <trkpt lat="53.222299" lon="9.843968">
  1867.     <ele>33.281</ele>
  1868.     <time>2010-09-17T16:57:41Z</time>
  1869.    </trkpt>
  1870.    <trkpt lat="53.222349" lon="9.843769">
  1871.     <ele>33.783</ele>
  1872.     <time>2010-09-17T16:58:00Z</time>
  1873.    </trkpt>
  1874.    <trkpt lat="53.222353" lon="9.843669">
  1875.     <ele>34.084</ele>
  1876.     <time>2010-09-17T16:58:15Z</time>
  1877.    </trkpt>
  1878.    <trkpt lat="53.222530" lon="9.843783">
  1879.     <ele>34.534</ele>
  1880.     <time>2010-09-17T16:58:47Z</time>
  1881.    </trkpt>
  1882.    <trkpt lat="53.222666" lon="9.843806">
  1883.     <ele>33.071</ele>
  1884.     <time>2010-09-17T16:58:58Z</time>
  1885.    </trkpt>
  1886.    <trkpt lat="53.222740" lon="9.843813">
  1887.     <ele>32.891</ele>
  1888.     <time>2010-09-17T16:59:06Z</time>
  1889.    </trkpt>
  1890.    <trkpt lat="53.222815" lon="9.843940">
  1891.     <ele>33.297</ele>
  1892.     <time>2010-09-17T16:59:18Z</time>
  1893.    </trkpt>
  1894.    <trkpt lat="53.222879" lon="9.844131">
  1895.     <ele>33.119</ele>
  1896.     <time>2010-09-17T16:59:37Z</time>
  1897.    </trkpt>
  1898.    <trkpt lat="53.222872" lon="9.844194">
  1899.     <ele>32.689</ele>
  1900.     <time>2010-09-17T16:59:41Z</time>
  1901.    </trkpt>
  1902.    <trkpt lat="53.222874" lon="9.844230">
  1903.     <ele>32.465</ele>
  1904.     <time>2010-09-17T16:59:43Z</time>
  1905.    </trkpt>
  1906.    <trkpt lat="53.222879" lon="9.844353">
  1907.     <ele>31.852</ele>
  1908.     <time>2010-09-17T16:59:51Z</time>
  1909.    </trkpt>
  1910.    <trkpt lat="53.222871" lon="9.844422">
  1911.     <ele>31.860</ele>
  1912.     <time>2010-09-17T16:59:55Z</time>
  1913.    </trkpt>
  1914.    <trkpt lat="53.222837" lon="9.844603">
  1915.     <ele>31.790</ele>
  1916.     <time>2010-09-17T17:00:03Z</time>
  1917.    </trkpt>
  1918.    <trkpt lat="53.222889" lon="9.844643">
  1919.     <ele>32.881</ele>
  1920.     <time>2010-09-17T17:00:09Z</time>
  1921.    </trkpt>
  1922.    <trkpt lat="53.223180" lon="9.844726">
  1923.     <ele>36.011</ele>
  1924.     <time>2010-09-17T17:00:34Z</time>
  1925.    </trkpt>
  1926.    <trkpt lat="53.223315" lon="9.844761">
  1927.     <ele>36.540</ele>
  1928.     <time>2010-09-17T17:00:45Z</time>
  1929.    </trkpt>
  1930.    <trkpt lat="53.223394" lon="9.844775">
  1931.     <ele>35.688</ele>
  1932.     <time>2010-09-17T17:00:50Z</time>
  1933.    </trkpt>
  1934.    <trkpt lat="53.223525" lon="9.844798">
  1935.     <ele>35.557</ele>
  1936.     <time>2010-09-17T17:00:58Z</time>
  1937.    </trkpt>
  1938.    <trkpt lat="53.223815" lon="9.844790">
  1939.     <ele>38.483</ele>
  1940.     <time>2010-09-17T17:01:19Z</time>
  1941.    </trkpt>
  1942.    <trkpt lat="53.224041" lon="9.844843">
  1943.     <ele>34.415</ele>
  1944.     <time>2010-09-17T17:01:36Z</time>
  1945.    </trkpt>
  1946.    <trkpt lat="53.224076" lon="9.844845">
  1947.     <ele>33.720</ele>
  1948.     <time>2010-09-17T17:01:39Z</time>
  1949.    </trkpt>
  1950.    <trkpt lat="53.224198" lon="9.844825">
  1951.     <ele>32.009</ele>
  1952.     <time>2010-09-17T17:01:53Z</time>
  1953.    </trkpt>
  1954.    <trkpt lat="53.224414" lon="9.844870">
  1955.     <ele>30.980</ele>
  1956.     <time>2010-09-17T17:02:07Z</time>
  1957.    </trkpt>
  1958.    <trkpt lat="53.224562" lon="9.844890">
  1959.     <ele>30.631</ele>
  1960.     <time>2010-09-17T17:02:18Z</time>
  1961.    </trkpt>
  1962.    <trkpt lat="53.224768" lon="9.844861">
  1963.     <ele>31.733</ele>
  1964.     <time>2010-09-17T17:02:33Z</time>
  1965.    </trkpt>
  1966.    <trkpt lat="53.224811" lon="9.844852">
  1967.     <ele>31.651</ele>
  1968.     <time>2010-09-17T17:02:37Z</time>
  1969.    </trkpt>
  1970.    <trkpt lat="53.225008" lon="9.844816">
  1971.     <ele>31.268</ele>
  1972.     <time>2010-09-17T17:02:52Z</time>
  1973.    </trkpt>
  1974.    <trkpt lat="53.225151" lon="9.844785">
  1975.     <ele>30.470</ele>
  1976.     <time>2010-09-17T17:03:05Z</time>
  1977.    </trkpt>
  1978.    <trkpt lat="53.225346" lon="9.844833">
  1979.     <ele>27.992</ele>
  1980.     <time>2010-09-17T17:03:17Z</time>
  1981.    </trkpt>
  1982.    <trkpt lat="53.225595" lon="9.844837">
  1983.     <ele>23.665</ele>
  1984.     <time>2010-09-17T17:03:38Z</time>
  1985.    </trkpt>
  1986.    <trkpt lat="53.225862" lon="9.844847">
  1987.     <ele>22.444</ele>
  1988.     <time>2010-09-17T17:03:57Z</time>
  1989.    </trkpt>
  1990.    <trkpt lat="53.226028" lon="9.844841">
  1991.     <ele>22.192</ele>
  1992.     <time>2010-09-17T17:04:10Z</time>
  1993.    </trkpt>
  1994.    <trkpt lat="53.226278" lon="9.844849">
  1995.     <ele>23.825</ele>
  1996.     <time>2010-09-17T17:04:26Z</time>
  1997.    </trkpt>
  1998.    <trkpt lat="53.226326" lon="9.844837">
  1999.     <ele>24.179</ele>
  2000.     <time>2010-09-17T17:04:30Z</time>
  2001.    </trkpt>
  2002.    <trkpt lat="53.226423" lon="9.844819">
  2003.     <ele>23.514</ele>
  2004.     <time>2010-09-17T17:04:38Z</time>
  2005.    </trkpt>
  2006.    <trkpt lat="53.226654" lon="9.844726">
  2007.     <ele>27.611</ele>
  2008.     <time>2010-09-17T17:04:55Z</time>
  2009.    </trkpt>
  2010.    <trkpt lat="53.226810" lon="9.844710">
  2011.     <ele>30.864</ele>
  2012.     <time>2010-09-17T17:05:08Z</time>
  2013.    </trkpt>
  2014.    <trkpt lat="53.227025" lon="9.844616">
  2015.     <ele>35.195</ele>
  2016.     <time>2010-09-17T17:05:26Z</time>
  2017.    </trkpt>
  2018.    <trkpt lat="53.227120" lon="9.844589">
  2019.     <ele>35.906</ele>
  2020.     <time>2010-09-17T17:05:34Z</time>
  2021.    </trkpt>
  2022.    <trkpt lat="53.227213" lon="9.844606">
  2023.     <ele>35.495</ele>
  2024.     <time>2010-09-17T17:05:40Z</time>
  2025.    </trkpt>
  2026.    <trkpt lat="53.227440" lon="9.844619">
  2027.     <ele>36.599</ele>
  2028.     <time>2010-09-17T17:05:57Z</time>
  2029.    </trkpt>
  2030.    <trkpt lat="53.227593" lon="9.844617">
  2031.     <ele>38.597</ele>
  2032.     <time>2010-09-17T17:06:08Z</time>
  2033.    </trkpt>
  2034.    <trkpt lat="53.227766" lon="9.844570">
  2035.     <ele>38.113</ele>
  2036.     <time>2010-09-17T17:06:21Z</time>
  2037.    </trkpt>
  2038.    <trkpt lat="53.227846" lon="9.844586">
  2039.     <ele>38.619</ele>
  2040.     <time>2010-09-17T17:06:27Z</time>
  2041.    </trkpt>
  2042.    <trkpt lat="53.227883" lon="9.844589">
  2043.     <ele>38.011</ele>
  2044.     <time>2010-09-17T17:06:30Z</time>
  2045.    </trkpt>
  2046.    <trkpt lat="53.228055" lon="9.844563">
  2047.     <ele>41.243</ele>
  2048.     <time>2010-09-17T17:06:45Z</time>
  2049.    </trkpt>
  2050.    <trkpt lat="53.228187" lon="9.844546">
  2051.     <ele>46.881</ele>
  2052.     <time>2010-09-17T17:06:54Z</time>
  2053.    </trkpt>
  2054.    <trkpt lat="53.228245" lon="9.844547">
  2055.     <ele>49.146</ele>
  2056.     <time>2010-09-17T17:06:59Z</time>
  2057.    </trkpt>
  2058.    <trkpt lat="53.228275" lon="9.844542">
  2059.     <ele>49.906</ele>
  2060.     <time>2010-09-17T17:07:01Z</time>
  2061.    </trkpt>
  2062.    <trkpt lat="53.228310" lon="9.844530">
  2063.     <ele>51.256</ele>
  2064.     <time>2010-09-17T17:07:04Z</time>
  2065.    </trkpt>
  2066.    <trkpt lat="53.228393" lon="9.844528">
  2067.     <ele>54.144</ele>
  2068.     <time>2010-09-17T17:07:11Z</time>
  2069.    </trkpt>
  2070.    <trkpt lat="53.228429" lon="9.844526">
  2071.     <ele>54.793</ele>
  2072.     <time>2010-09-17T17:07:14Z</time>
  2073.    </trkpt>
  2074.    <trkpt lat="53.228508" lon="9.844476">
  2075.     <ele>54.063</ele>
  2076.     <time>2010-09-17T17:07:20Z</time>
  2077.    </trkpt>
  2078.    <trkpt lat="53.228539" lon="9.844488">
  2079.     <ele>54.563</ele>
  2080.     <time>2010-09-17T17:07:22Z</time>
  2081.    </trkpt>
  2082.    <trkpt lat="53.228720" lon="9.844484">
  2083.     <ele>58.048</ele>
  2084.     <time>2010-09-17T17:07:35Z</time>
  2085.    </trkpt>
  2086.    <trkpt lat="53.228772" lon="9.844480">
  2087.     <ele>57.693</ele>
  2088.     <time>2010-09-17T17:07:39Z</time>
  2089.    </trkpt>
  2090.    <trkpt lat="53.229014" lon="9.844473">
  2091.     <ele>57.735</ele>
  2092.     <time>2010-09-17T17:07:55Z</time>
  2093.    </trkpt>
  2094.    <trkpt lat="53.229251" lon="9.844523">
  2095.     <ele>54.476</ele>
  2096.     <time>2010-09-17T17:08:11Z</time>
  2097.    </trkpt>
  2098.    <trkpt lat="53.229478" lon="9.844439">
  2099.     <ele>50.935</ele>
  2100.     <time>2010-09-17T17:08:29Z</time>
  2101.    </trkpt>
  2102.    <trkpt lat="53.229663" lon="9.844400">
  2103.     <ele>49.484</ele>
  2104.     <time>2010-09-17T17:08:43Z</time>
  2105.    </trkpt>
  2106.    <trkpt lat="53.229787" lon="9.844351">
  2107.     <ele>48.761</ele>
  2108.     <time>2010-09-17T17:08:53Z</time>
  2109.    </trkpt>
  2110.    <trkpt lat="53.229811" lon="9.844360">
  2111.     <ele>48.573</ele>
  2112.     <time>2010-09-17T17:08:55Z</time>
  2113.    </trkpt>
  2114.    <trkpt lat="53.230176" lon="9.844315">
  2115.     <ele>45.617</ele>
  2116.     <time>2010-09-17T17:09:22Z</time>
  2117.    </trkpt>
  2118.    <trkpt lat="53.230419" lon="9.844366">
  2119.     <ele>45.438</ele>
  2120.     <time>2010-09-17T17:09:41Z</time>
  2121.    </trkpt>
  2122.    <trkpt lat="53.230664" lon="9.844392">
  2123.     <ele>43.365</ele>
  2124.     <time>2010-09-17T17:10:00Z</time>
  2125.    </trkpt>
  2126.    <trkpt lat="53.230805" lon="9.844378">
  2127.     <ele>42.766</ele>
  2128.     <time>2010-09-17T17:10:10Z</time>
  2129.    </trkpt>
  2130.    <trkpt lat="53.231068" lon="9.844346">
  2131.     <ele>42.540</ele>
  2132.     <time>2010-09-17T17:10:27Z</time>
  2133.    </trkpt>
  2134.    <trkpt lat="53.231243" lon="9.844283">
  2135.     <ele>40.338</ele>
  2136.     <time>2010-09-17T17:10:39Z</time>
  2137.    </trkpt>
  2138.    <trkpt lat="53.231301" lon="9.844280">
  2139.     <ele>38.952</ele>
  2140.     <time>2010-09-17T17:10:44Z</time>
  2141.    </trkpt>
  2142.    <trkpt lat="53.231686" lon="9.844224">
  2143.     <ele>37.940</ele>
  2144.     <time>2010-09-17T17:11:11Z</time>
  2145.    </trkpt>
  2146.    <trkpt lat="53.231960" lon="9.844229">
  2147.     <ele>38.162</ele>
  2148.     <time>2010-09-17T17:11:30Z</time>
  2149.    </trkpt>
  2150.    <trkpt lat="53.232288" lon="9.844203">
  2151.     <ele>37.113</ele>
  2152.     <time>2010-09-17T17:11:55Z</time>
  2153.    </trkpt>
  2154.    <trkpt lat="53.232618" lon="9.844229">
  2155.     <ele>38.607</ele>
  2156.     <time>2010-09-17T17:12:21Z</time>
  2157.    </trkpt>
  2158.    <trkpt lat="53.232666" lon="9.844218">
  2159.     <ele>38.659</ele>
  2160.     <time>2010-09-17T17:12:25Z</time>
  2161.    </trkpt>
  2162.    <trkpt lat="53.232978" lon="9.844181">
  2163.     <ele>38.672</ele>
  2164.     <time>2010-09-17T17:12:48Z</time>
  2165.    </trkpt>
  2166.    <trkpt lat="53.233300" lon="9.844152">
  2167.     <ele>40.006</ele>
  2168.     <time>2010-09-17T17:13:12Z</time>
  2169.    </trkpt>
  2170.    <trkpt lat="53.233354" lon="9.844163">
  2171.     <ele>40.412</ele>
  2172.     <time>2010-09-17T17:13:17Z</time>
  2173.    </trkpt>
  2174.    <trkpt lat="53.233514" lon="9.844097">
  2175.     <ele>38.791</ele>
  2176.     <time>2010-09-17T17:13:33Z</time>
  2177.    </trkpt>
  2178.    <trkpt lat="53.233518" lon="9.843988">
  2179.     <ele>37.973</ele>
  2180.     <time>2010-09-17T17:13:39Z</time>
  2181.    </trkpt>
  2182.    <trkpt lat="53.233517" lon="9.843847">
  2183.     <ele>34.638</ele>
  2184.     <time>2010-09-17T17:13:47Z</time>
  2185.    </trkpt>
  2186.    <trkpt lat="53.233530" lon="9.843781">
  2187.     <ele>33.824</ele>
  2188.     <time>2010-09-17T17:13:53Z</time>
  2189.    </trkpt>
  2190.    <trkpt lat="53.233518" lon="9.843715">
  2191.     <ele>32.957</ele>
  2192.     <time>2010-09-17T17:13:55Z</time>
  2193.    </trkpt>
  2194.    <trkpt lat="53.233495" lon="9.843630">
  2195.     <ele>32.652</ele>
  2196.     <time>2010-09-17T17:13:57Z</time>
  2197.    </trkpt>
  2198.    <trkpt lat="53.233475" lon="9.843422">
  2199.     <ele>35.174</ele>
  2200.     <time>2010-09-17T17:14:07Z</time>
  2201.    </trkpt>
  2202.    <trkpt lat="53.233463" lon="9.843220">
  2203.     <ele>37.757</ele>
  2204.     <time>2010-09-17T17:14:18Z</time>
  2205.    </trkpt>
  2206.    <trkpt lat="53.233440" lon="9.842724">
  2207.     <ele>40.712</ele>
  2208.     <time>2010-09-17T17:14:42Z</time>
  2209.    </trkpt>
  2210.    <trkpt lat="53.233381" lon="9.842216">
  2211.     <ele>45.086</ele>
  2212.     <time>2010-09-17T17:15:07Z</time>
  2213.    </trkpt>
  2214.    <trkpt lat="53.233370" lon="9.842072">
  2215.     <ele>45.836</ele>
  2216.     <time>2010-09-17T17:15:15Z</time>
  2217.    </trkpt>
  2218.    <trkpt lat="53.233472" lon="9.842015">
  2219.     <ele>43.473</ele>
  2220.     <time>2010-09-17T17:15:25Z</time>
  2221.    </trkpt>
  2222.    <trkpt lat="53.233661" lon="9.841986">
  2223.     <ele>40.383</ele>
  2224.     <time>2010-09-17T17:15:40Z</time>
  2225.    </trkpt>
  2226.    <trkpt lat="53.233813" lon="9.841955">
  2227.     <ele>35.363</ele>
  2228.     <time>2010-09-17T17:16:00Z</time>
  2229.    </trkpt>
  2230.    <trkpt lat="53.234097" lon="9.841869">
  2231.     <ele>35.052</ele>
  2232.     <time>2010-09-17T17:16:30Z</time>
  2233.    </trkpt>
  2234.    <trkpt lat="53.234107" lon="9.841878">
  2235.     <ele>35.116</ele>
  2236.     <time>2010-09-17T17:16:31Z</time>
  2237.    </trkpt>
  2238.    <trkpt lat="53.234297" lon="9.841853">
  2239.     <ele>34.723</ele>
  2240.     <time>2010-09-17T17:16:46Z</time>
  2241.    </trkpt>
  2242.    <trkpt lat="53.234549" lon="9.841892">
  2243.     <ele>39.596</ele>
  2244.     <time>2010-09-17T17:17:04Z</time>
  2245.    </trkpt>
  2246.    <trkpt lat="53.234729" lon="9.841904">
  2247.     <ele>44.170</ele>
  2248.     <time>2010-09-17T17:17:18Z</time>
  2249.    </trkpt>
  2250.    <trkpt lat="53.234826" lon="9.841899">
  2251.     <ele>44.979</ele>
  2252.     <time>2010-09-17T17:17:27Z</time>
  2253.    </trkpt>
  2254.    <trkpt lat="53.234880" lon="9.841890">
  2255.     <ele>45.472</ele>
  2256.     <time>2010-09-17T17:17:31Z</time>
  2257.    </trkpt>
  2258.    <trkpt lat="53.235139" lon="9.841852">
  2259.     <ele>44.300</ele>
  2260.     <time>2010-09-17T17:17:49Z</time>
  2261.    </trkpt>
  2262.    <trkpt lat="53.235166" lon="9.841860">
  2263.     <ele>45.224</ele>
  2264.     <time>2010-09-17T17:17:51Z</time>
  2265.    </trkpt>
  2266.    <trkpt lat="53.235246" lon="9.841847">
  2267.     <ele>44.469</ele>
  2268.     <time>2010-09-17T17:17:59Z</time>
  2269.    </trkpt>
  2270.    <trkpt lat="53.235491" lon="9.841865">
  2271.     <ele>45.777</ele>
  2272.     <time>2010-09-17T17:18:15Z</time>
  2273.    </trkpt>
  2274.    <trkpt lat="53.235555" lon="9.841834">
  2275.     <ele>44.870</ele>
  2276.     <time>2010-09-17T17:18:21Z</time>
  2277.    </trkpt>
  2278.    <trkpt lat="53.235591" lon="9.841865">
  2279.     <ele>45.460</ele>
  2280.     <time>2010-09-17T17:18:24Z</time>
  2281.    </trkpt>
  2282.    <trkpt lat="53.235688" lon="9.841904">
  2283.     <ele>46.239</ele>
  2284.     <time>2010-09-17T17:18:32Z</time>
  2285.    </trkpt>
  2286.    <trkpt lat="53.235749" lon="9.841930">
  2287.     <ele>46.419</ele>
  2288.     <time>2010-09-17T17:18:36Z</time>
  2289.    </trkpt>
  2290.    <trkpt lat="53.235774" lon="9.841929">
  2291.     <ele>46.559</ele>
  2292.     <time>2010-09-17T17:18:38Z</time>
  2293.    </trkpt>
  2294.    <trkpt lat="53.235802" lon="9.842216">
  2295.     <ele>44.184</ele>
  2296.     <time>2010-09-17T17:18:53Z</time>
  2297.    </trkpt>
  2298.    <trkpt lat="53.235805" lon="9.842329">
  2299.     <ele>43.918</ele>
  2300.     <time>2010-09-17T17:18:58Z</time>
  2301.    </trkpt>
  2302.    <trkpt lat="53.235829" lon="9.842727">
  2303.     <ele>39.939</ele>
  2304.     <time>2010-09-17T17:19:18Z</time>
  2305.    </trkpt>
  2306.    <trkpt lat="53.235840" lon="9.843242">
  2307.     <ele>36.999</ele>
  2308.     <time>2010-09-17T17:19:41Z</time>
  2309.    </trkpt>
  2310.    <trkpt lat="53.235850" lon="9.843554">
  2311.     <ele>38.027</ele>
  2312.     <time>2010-09-17T17:19:56Z</time>
  2313.    </trkpt>
  2314.    <trkpt lat="53.235869" lon="9.843806">
  2315.     <ele>38.481</ele>
  2316.     <time>2010-09-17T17:20:08Z</time>
  2317.    </trkpt>
  2318.    <trkpt lat="53.236051" lon="9.843955">
  2319.     <ele>37.793</ele>
  2320.     <time>2010-09-17T17:20:25Z</time>
  2321.    </trkpt>
  2322.    <trkpt lat="53.236278" lon="9.843961">
  2323.     <ele>36.751</ele>
  2324.     <time>2010-09-17T17:20:45Z</time>
  2325.    </trkpt>
  2326.    <trkpt lat="53.236599" lon="9.844019">
  2327.     <ele>38.525</ele>
  2328.     <time>2010-09-17T17:21:10Z</time>
  2329.    </trkpt>
  2330.    <trkpt lat="53.236783" lon="9.844022">
  2331.     <ele>39.657</ele>
  2332.     <time>2010-09-17T17:21:24Z</time>
  2333.    </trkpt>
  2334.    <trkpt lat="53.237108" lon="9.844063">
  2335.     <ele>41.421</ele>
  2336.     <time>2010-09-17T17:21:50Z</time>
  2337.    </trkpt>
  2338.    <trkpt lat="53.237479" lon="9.844109">
  2339.     <ele>42.139</ele>
  2340.     <time>2010-09-17T17:22:19Z</time>
  2341.    </trkpt>
  2342.    <trkpt lat="53.237796" lon="9.844125">
  2343.     <ele>43.218</ele>
  2344.     <time>2010-09-17T17:22:42Z</time>
  2345.    </trkpt>
  2346.    <trkpt lat="53.238006" lon="9.844139">
  2347.     <ele>40.218</ele>
  2348.     <time>2010-09-17T17:22:58Z</time>
  2349.    </trkpt>
  2350.    <trkpt lat="53.238281" lon="9.844165">
  2351.     <ele>40.610</ele>
  2352.     <time>2010-09-17T17:23:19Z</time>
  2353.    </trkpt>
  2354.    <trkpt lat="53.238739" lon="9.844206">
  2355.     <ele>40.965</ele>
  2356.     <time>2010-09-17T17:23:54Z</time>
  2357.    </trkpt>
  2358.    <trkpt lat="53.239141" lon="9.844222">
  2359.     <ele>41.556</ele>
  2360.     <time>2010-09-17T17:24:25Z</time>
  2361.    </trkpt>
  2362.    <trkpt lat="53.239539" lon="9.844006">
  2363.     <ele>42.941</ele>
  2364.     <time>2010-09-17T17:24:56Z</time>
  2365.    </trkpt>
  2366.    <trkpt lat="53.239791" lon="9.843875">
  2367.     <ele>43.465</ele>
  2368.     <time>2010-09-17T17:25:17Z</time>
  2369.    </trkpt>
  2370.    <trkpt lat="53.239840" lon="9.843857">
  2371.     <ele>40.941</ele>
  2372.     <time>2010-09-17T17:25:22Z</time>
  2373.    </trkpt>
  2374.    <trkpt lat="53.240141" lon="9.843912">
  2375.     <ele>40.751</ele>
  2376.     <time>2010-09-17T17:25:46Z</time>
  2377.    </trkpt>
  2378.    <trkpt lat="53.240348" lon="9.843876">
  2379.     <ele>37.915</ele>
  2380.     <time>2010-09-17T17:26:03Z</time>
  2381.    </trkpt>
  2382.    <trkpt lat="53.240383" lon="9.843887">
  2383.     <ele>38.516</ele>
  2384.     <time>2010-09-17T17:26:06Z</time>
  2385.    </trkpt>
  2386.    <trkpt lat="53.240539" lon="9.843863">
  2387.     <ele>39.888</ele>
  2388.     <time>2010-09-17T17:26:19Z</time>
  2389.    </trkpt>
  2390.    <trkpt lat="53.240765" lon="9.843903">
  2391.     <ele>39.780</ele>
  2392.     <time>2010-09-17T17:26:34Z</time>
  2393.    </trkpt>
  2394.    <trkpt lat="53.241039" lon="9.844003">
  2395.     <ele>44.983</ele>
  2396.     <time>2010-09-17T17:26:58Z</time>
  2397.    </trkpt>
  2398.    <trkpt lat="53.241363" lon="9.844162">
  2399.     <ele>44.896</ele>
  2400.     <time>2010-09-17T17:27:24Z</time>
  2401.    </trkpt>
  2402.    <trkpt lat="53.241601" lon="9.844272">
  2403.     <ele>44.614</ele>
  2404.     <time>2010-09-17T17:27:44Z</time>
  2405.    </trkpt>
  2406.    <trkpt lat="53.241782" lon="9.844275">
  2407.     <ele>45.244</ele>
  2408.     <time>2010-09-17T17:28:09Z</time>
  2409.    </trkpt>
  2410.   </trkseg>
  2411.  </trk>
  2412. </gpx>

Update the Post

Either update this post and resubmit it with changes, or make a new post.

You may also comment on this post.

update paste below
details of the post (optional)

Note: Only the paste content is required, though the following information can be useful to others.

Save name / title?

(space separated, optional)



Please note that information posted here will expire by default in one month. If you do not want it to expire, please set the expiry time above. If it is set to expire, web search engines will not be allowed to index it prior to it expiring. Items that are not marked to expire will be indexable by search engines. Be careful with your passwords. All illegal activities will be reported and any information will be handed over to the authorities, so be good.

comments powered by Disqus